Observation data for Dozier on 07/17/2019      Previous  Date  Next       Current Mesonet Observations  Soil Data  Daily Summary Page  Observations in Plain Language
KDO1 170500Z 19006KT 28/18 A2997 RMK A01 T02830182  RH  054%=      5-min Rain = 0
KDO1 170501Z 20007KT 28/18 A2997 RMK A01 T02830182  RH  054%=      5-min Rain = 0
KDO1 170502Z 19006KT 28/18 A2997 RMK A01 T02830182  RH  054%=      5-min Rain = 0
KDO1 170503Z 19007KT 28/18 A2997 RMK A01 T02830182  RH  054%=      5-min Rain = 0
KDO1 170504Z 19006KT 28/18 A2997 RMK A01 T02830182  RH  054%=      5-min Rain = 0
KDO1 170505Z 19006KT 28/18 A2997 RMK A01 T02820182  RH  055%=      5-min Rain = 0
KDO1 170506Z 19006KT 28/18 A2997 RMK A01 T02820183  RH  055%=      5-min Rain = 0
KDO1 170507Z 19006KT 28/18 A2997 RMK A01 T02810183  RH  055%=      5-min Rain = 0
KDO1 170508Z 19005KT 28/18 A2997 RMK A01 T02810183  RH  055%=      5-min Rain = 0
KDO1 170509Z 19005KT 28/18 A2997 RMK A01 T02810184  RH  056%=      5-min Rain = 0
KDO1 170510Z 19006KT 28/18 A2997 RMK A01 T02800183  RH  056%=      5-min Rain = 0
KDO1 170511Z 19006KT 28/18 A2997 RMK A01 T02800184  RH  056%=      5-min Rain = 0
KDO1 170512Z 19005KT 28/18 A2997 RMK A01 T02790184  RH  056%=      5-min Rain = 0
KDO1 170513Z 19006KT 28/19 A2997 RMK A01 T02790185  RH  056%=      5-min Rain = 0
KDO1 170514Z 19006KT 28/19 A2997 RMK A01 T02790185  RH  057%=      5-min Rain = 0
KDO1 170515Z 19006KT 28/19 A2997 RMK A01 T02780186  RH  057%=      5-min Rain = 0
KDO1 170516Z 19006KT 28/19 A2997 RMK A01 T02780186  RH  057%=      5-min Rain = 0
KDO1 170517Z 19006KT 28/19 A2997 RMK A01 T02780187  RH  058%=      5-min Rain = 0
KDO1 170518Z 19005KT 28/19 A2996 RMK A01 T02770187  RH  058%=      5-min Rain = 0
KDO1 170519Z 18005KT 28/19 A2996 RMK A01 T02770188  RH  058%=      5-min Rain = 0
KDO1 170520Z 18006KT 28/19 A2996 RMK A01 T02760188  RH  059%=      5-min Rain = 0
KDO1 170521Z 18006KT 28/19 A2996 RMK A01 T02760189  RH  059%=      5-min Rain = 0
KDO1 170522Z 18006KT 28/19 A2996 RMK A01 T02760190  RH  059%=      5-min Rain = 0
KDO1 170523Z 18006KT 28/19 A2996 RMK A01 T02760190  RH  060%=      5-min Rain = 0
KDO1 170524Z 18006KT 28/19 A2996 RMK A01 T02750191  RH  060%=      5-min Rain = 0
KDO1 170525Z 18006KT 28/19 A2996 RMK A01 T02750191  RH  060%=      5-min Rain = 0
KDO1 170526Z 18007KT 28/19 A2996 RMK A01 T02760192  RH  060%=      5-min Rain = 0
KDO1 170527Z 18008KT 28/19 A2996 RMK A01 T02760192  RH  060%=      5-min Rain = 0
KDO1 170528Z 18008KT 28/19 A2996 RMK A01 T02760192  RH  060%=      5-min Rain = 0
KDO1 170529Z 18007KT 28/19 A2996 RMK A01 T02770192  RH  060%=      5-min Rain = 0
KDO1 170530Z 18007KT 28/19 A2996 RMK A01 T02780193  RH  060%=      5-min Rain = 0
KDO1 170531Z 18008KT 28/19 A2996 RMK A01 T02780193  RH  060%=      5-min Rain = 0
KDO1 170532Z 17008KT 28/19 A2996 RMK A01 T02780192  RH  060%=      5-min Rain = 0
KDO1 170533Z 18008KT 28/19 A2996 RMK A01 T02780193  RH  060%=      5-min Rain = 0
KDO1 170534Z 17009KT 28/19 A2996 RMK A01 T02780193  RH  060%=      5-min Rain = 0
KDO1 170535Z 17008KT 28/19 A2996 RMK A01 T02790193  RH  059%=      5-min Rain = 0
KDO1 170536Z 18008KT 28/19 A2996 RMK A01 T02800193  RH  059%=      5-min Rain = 0
KDO1 170537Z 18009KT 28/19 A2996 RMK A01 T02800193  RH  059%=      5-min Rain = 0
KDO1 170538Z 17009KT 28/19 A2996 RMK A01 T02800193  RH  059%=      5-min Rain = 0
KDO1 170539Z 18008KT 28/19 A2996 RMK A01 T02810193  RH  059%=      5-min Rain = 0
KDO1 170540Z 18009KT 28/19 A2996 RMK A01 T02820193  RH  059%=      5-min Rain = 0
KDO1 170541Z 18010KT 28/19 A2996 RMK A01 T02820193  RH  059%=      5-min Rain = 0
KDO1 170542Z 18009KT 28/19 A2996 RMK A01 T02820193  RH  058%=      5-min Rain = 0
KDO1 170543Z 18010KT 28/19 A2996 RMK A01 T02830193  RH  058%=      5-min Rain = 0
KDO1 170544Z 18011KT 28/19 A2996 RMK A01 T02830193  RH  058%=      5-min Rain = 0
KDO1 170545Z 17009KT 28/19 A2996 RMK A01 T02840193  RH  058%=      5-min Rain = 0
KDO1 170546Z 17009G14KT 28/19 A2996 RMK A01 T02840193  RH  058%=      5-min Rain = 0
KDO1 170547Z 18010KT 28/19 A2996 RMK A01 T02840193  RH  058%=      5-min Rain = 0
KDO1 170548Z 18008KT 29/19 A2996 RMK A01 T02850193  RH  058%=      5-min Rain = 0
KDO1 170549Z 17009KT 29/19 A2996 RMK A01 T02850193  RH  058%=      5-min Rain = 0
KDO1 170550Z 17008KT 29/19 A2996 RMK A01 T02850194  RH  058%=      5-min Rain = 0
KDO1 170551Z 17008KT 29/19 A2996 RMK A01 T02850194  RH  058%=      5-min Rain = 0
KDO1 170552Z 18009G14KT 29/19 A2996 RMK A01 T02850194  RH  058%=      5-min Rain = 0
KDO1 170553Z 17010KT 29/19 A2996 RMK A01 T02850194  RH  058%=      5-min Rain = 0
KDO1 170554Z 17010KT 29/19 A2996 RMK A01 T02850194  RH  058%=      5-min Rain = 0
KDO1 170555Z 17010KT 29/19 A2996 RMK A01 T02850194  RH  058%=      5-min Rain = 0
KDO1 170556Z 17009KT 29/19 A2996 RMK A01 T02850194  RH  058%=      5-min Rain = 0
KDO1 170557Z 17010KT 29/19 A2996 RMK A01 T02860194  RH  058%=      5-min Rain = 0
KDO1 170558Z 17011KT 29/19 A2996 RMK A01 T02850194  RH  058%=      5-min Rain = 0
KDO1 170559Z 18011KT 29/19 A2996 RMK A01 T02850194  RH  058%=      5-min Rain = 0
KDO1 170600Z 17010KT 29/19 A2996 RMK A01 T02860194  RH  058%=      5-min Rain = 0
KDO1 170601Z 18011KT 29/19 A2996 RMK A01 T02860194  RH  058%=      5-min Rain = 0
KDO1 170602Z 17008KT 29/19 A2996 RMK A01 T02860194  RH  058%=      5-min Rain = 0
KDO1 170603Z 18009KT 29/19 A2996 RMK A01 T02860194  RH  058%=      5-min Rain = 0
KDO1 170604Z 18011G16KT 29/19 A2996 RMK A01 T02850194  RH  058%=      5-min Rain = 0
KDO1 170605Z 17009KT 29/20 A2996 RMK A01 T02850195  RH  058%=      5-min Rain = 0
KDO1 170606Z 17010KT 29/19 A2996 RMK A01 T02850194  RH  058%=      5-min Rain = 0
KDO1 170607Z 17010KT 29/19 A2996 RMK A01 T02850194  RH  058%=      5-min Rain = 0
KDO1 170608Z 17009KT 29/19 A2996 RMK A01 T02850194  RH  058%=      5-min Rain = 0
KDO1 170609Z 17010KT 29/20 A2996 RMK A01 T02850195  RH  058%=      5-min Rain = 0
KDO1 170610Z 17011KT 29/20 A2996 RMK A01 T02850195  RH  058%=      5-min Rain = 0
KDO1 170611Z 17010KT 29/20 A2996 RMK A01 T02850195  RH  058%=      5-min Rain = 0
KDO1 170612Z 17012KT 29/20 A2996 RMK A01 T02850195  RH  058%=      5-min Rain = 0
KDO1 170613Z 17010KT 29/20 A2996 RMK A01 T02850195  RH  058%=      5-min Rain = 0
KDO1 170614Z 17010KT 29/20 A2996 RMK A01 T02850195  RH  058%=      5-min Rain = 0
KDO1 170615Z 17010KT 29/20 A2996 RMK A01 T02850195  RH  058%=      5-min Rain = 0
KDO1 170616Z 17008KT 29/20 A2996 RMK A01 T02850195  RH  058%=      5-min Rain = 0
KDO1 170617Z 18009KT 29/20 A2996 RMK A01 T02850195  RH  058%=      5-min Rain = 0
KDO1 170618Z 18010KT 29/20 A2996 RMK A01 T02850195  RH  058%=      5-min Rain = 0
KDO1 170619Z 18009KT 29/20 A2996 RMK A01 T02850195  RH  058%=      5-min Rain = 0
KDO1 170620Z 17011KT 29/20 A2996 RMK A01 T02850195  RH  058%=      5-min Rain = 0
KDO1 170621Z 17011KT 29/20 A2996 RMK A01 T02850195  RH  058%=      5-min Rain = 0
KDO1 170622Z 18009KT 29/20 A2996 RMK A01 T02850195  RH  058%=      5-min Rain = 0
KDO1 170623Z 17010KT 29/20 A2996 RMK A01 T02850195  RH  058%=      5-min Rain = 0
KDO1 170624Z 17008KT 29/20 A2996 RMK A01 T02850195  RH  058%=      5-min Rain = 0
KDO1 170625Z 18008KT 29/20 A2996 RMK A01 T02850195  RH  058%=      5-min Rain = 0
KDO1 170626Z 18009KT 28/20 A2996 RMK A01 T02840195  RH  058%=      5-min Rain = 0
KDO1 170627Z 17008KT 28/20 A2996 RMK A01 T02840195  RH  059%=      5-min Rain = 0
KDO1 170628Z 17008KT 28/20 A2996 RMK A01 T02840195  RH  059%=      5-min Rain = 0
KDO1 170629Z 18007KT 28/20 A2996 RMK A01 T02830195  RH  059%=      5-min Rain = 0
KDO1 170630Z 17007KT 28/20 A2996 RMK A01 T02830195  RH  059%=      5-min Rain = 0
KDO1 170631Z 18008KT 28/20 A2996 RMK A01 T02830195  RH  059%=      5-min Rain = 0
KDO1 170632Z 18009KT 28/20 A2996 RMK A01 T02830195  RH  059%=      5-min Rain = 0
KDO1 170633Z 17009KT 28/20 A2996 RMK A01 T02820195  RH  059%=      5-min Rain = 0
KDO1 170634Z 18008KT 28/20 A2996 RMK A01 T02830195  RH  059%=      5-min Rain = 0
KDO1 170635Z 17009KT 28/20 A2996 RMK A01 T02820195  RH  059%=      5-min Rain = 0
KDO1 170636Z 17008G13KT 28/20 A2996 RMK A01 T02820195  RH  059%=      5-min Rain = 0
KDO1 170637Z 17009KT 28/20 A2996 RMK A01 T02830195  RH  059%=      5-min Rain = 0
KDO1 170638Z 18009KT 28/20 A2996 RMK A01 T02830195  RH  059%=      5-min Rain = 0
KDO1 170639Z 18007KT 28/20 A2996 RMK A01 T02830195  RH  059%=      5-min Rain = 0
KDO1 170640Z 17007KT 28/20 A2996 RMK A01 T02820195  RH  059%=      5-min Rain = 0
KDO1 170641Z 17007KT 28/20 A2996 RMK A01 T02820195  RH  059%=      5-min Rain = 0
KDO1 170642Z 18010KT 28/20 A2996 RMK A01 T02810195  RH  059%=      5-min Rain = 0
KDO1 170643Z 17007KT 28/20 A2996 RMK A01 T02810195  RH  059%=      5-min Rain = 0
KDO1 170644Z 18008G13KT 28/20 A2996 RMK A01 T02810195  RH  060%=      5-min Rain = 0
KDO1 170645Z 17008KT 28/20 A2996 RMK A01 T02810195  RH  060%=      5-min Rain = 0
KDO1 170646Z 18009KT 28/20 A2996 RMK A01 T02810195  RH  060%=      5-min Rain = 0
KDO1 170647Z 18008KT 28/20 A2996 RMK A01 T02820195  RH  059%=      5-min Rain = 0
KDO1 170648Z 17008KT 28/20 A2996 RMK A01 T02810195  RH  059%=      5-min Rain = 0
KDO1 170649Z 17009KT 28/20 A2996 RMK A01 T02820195  RH  059%=      5-min Rain = 0
KDO1 170650Z 17008KT 28/20 A2996 RMK A01 T02820195  RH  059%=      5-min Rain = 0
KDO1 170651Z 17009KT 28/20 A2996 RMK A01 T02820195  RH  059%=      5-min Rain = 0
KDO1 170652Z 17007KT 28/20 A2996 RMK A01 T02810195  RH  059%=      5-min Rain = 0
KDO1 170653Z 17009KT 28/20 A2996 RMK A01 T02810195  RH  059%=      5-min Rain = 0
KDO1 170654Z 17008KT 28/20 A2996 RMK A01 T02810195  RH  059%=      5-min Rain = 0
KDO1 170655Z 17006KT 28/20 A2996 RMK A01 T02820195  RH  059%=      5-min Rain = 0
KDO1 170656Z 17008KT 28/20 A2996 RMK A01 T02810195  RH  060%=      5-min Rain = 0
KDO1 170657Z 17008KT 28/20 A2996 RMK A01 T02810195  RH  060%=      5-min Rain = 0
KDO1 170658Z 17006KT 28/20 A2996 RMK A01 T02800195  RH  060%=      5-min Rain = 0
KDO1 170659Z 17007KT 28/20 A2996 RMK A01 T02800195  RH  060%=      5-min Rain = 0
KDO1 170700Z 17007KT 28/20 A2996 RMK A01 T02800195  RH  060%=      5-min Rain = 0
KDO1 170701Z 17006KT 28/20 A2996 RMK A01 T02800195  RH  060%=      5-min Rain = 0
KDO1 170702Z 17006KT 28/20 A2996 RMK A01 T02800195  RH  060%=      5-min Rain = 0
KDO1 170703Z 17007KT 28/20 A2996 RMK A01 T02800195  RH  060%=      5-min Rain = 0
KDO1 170704Z 16007KT 28/20 A2996 RMK A01 T02790195  RH  060%=      5-min Rain = 0
KDO1 170705Z 16005KT 28/20 A2996 RMK A01 T02790195  RH  060%=      5-min Rain = 0
KDO1 170706Z 16005KT 28/20 A2996 RMK A01 T02790195  RH  060%=      5-min Rain = 0
KDO1 170707Z 15006KT 28/20 A2996 RMK A01 T02790196  RH  060%=      5-min Rain = 0
KDO1 170708Z 16005KT 28/20 A2996 RMK A01 T02790195  RH  061%=      5-min Rain = 0
KDO1 170709Z 15006KT 28/20 A2996 RMK A01 T02780195  RH  061%=      5-min Rain = 0
KDO1 170710Z 16007KT 28/20 A2996 RMK A01 T02780195  RH  061%=      5-min Rain = 0
KDO1 170711Z 16008KT 28/20 A2996 RMK A01 T02780196  RH  061%=      5-min Rain = 0
KDO1 170712Z 15006KT 28/20 A2996 RMK A01 T02780195  RH  061%=      5-min Rain = 0
KDO1 170713Z 16006KT 28/20 A2996 RMK A01 T02780195  RH  061%=      5-min Rain = 0
KDO1 170714Z 15006KT 28/20 A2996 RMK A01 T02780195  RH  061%=      5-min Rain = 0
KDO1 170715Z 16005KT 28/20 A2996 RMK A01 T02780195  RH  061%=      5-min Rain = 0
KDO1 170716Z 15006KT 28/20 A2996 RMK A01 T02780195  RH  061%=      5-min Rain = 0
KDO1 170717Z 16006KT 28/20 A2996 RMK A01 T02780195  RH  061%=      5-min Rain = 0
KDO1 170718Z 16005KT 28/20 A2996 RMK A01 T02780195  RH  061%=      5-min Rain = 0
KDO1 170719Z 16006KT 28/20 A2996 RMK A01 T02780196  RH  061%=      5-min Rain = 0
KDO1 170720Z 16005KT 28/20 A2996 RMK A01 T02780196  RH  061%=      5-min Rain = 0
KDO1 170721Z 16004KT 28/20 A2996 RMK A01 T02780195  RH  061%=      5-min Rain = 0
KDO1 170722Z 16004KT 28/20 A2996 RMK A01 T02770196  RH  061%=      5-min Rain = 0
KDO1 170723Z 17005KT 28/20 A2996 RMK A01 T02770196  RH  061%=      5-min Rain = 0
KDO1 170724Z 16005KT 28/20 A2996 RMK A01 T02760196  RH  062%=      5-min Rain = 0
KDO1 170725Z 17005KT 28/20 A2996 RMK A01 T02750196  RH  062%=      5-min Rain = 0
KDO1 170726Z 17006KT 28/20 A2997 RMK A01 T02750195  RH  062%=      5-min Rain = 0
KDO1 170727Z 16005KT 28/20 A2996 RMK A01 T02750196  RH  062%=      5-min Rain = 0
KDO1 170728Z 16004KT 27/20 A2997 RMK A01 T02740196  RH  062%=      5-min Rain = 0
KDO1 170729Z 17005KT 27/20 A2997 RMK A01 T02740196  RH  062%=      5-min Rain = 0
KDO1 170730Z 16004KT 27/20 A2997 RMK A01 T02740196  RH  062%=      5-min Rain = 0
KDO1 170731Z 17004KT 27/20 A2997 RMK A01 T02740196  RH  062%=      5-min Rain = 0
KDO1 170732Z 17004KT 27/20 A2997 RMK A01 T02740196  RH  062%=      5-min Rain = 0
KDO1 170733Z 17004KT 27/20 A2997 RMK A01 T02730196  RH  063%=      5-min Rain = 0
KDO1 170734Z 17004KT 27/20 A2997 RMK A01 T02730195  RH  063%=      5-min Rain = 0
KDO1 170735Z 17005KT 27/20 A2997 RMK A01 T02730195  RH  063%=      5-min Rain = 0
KDO1 170736Z 18005KT 27/20 A2997 RMK A01 T02730195  RH  063%=      5-min Rain = 0
KDO1 170737Z 18004KT 27/20 A2997 RMK A01 T02730195  RH  063%=      5-min Rain = 0
KDO1 170738Z 18004KT 27/20 A2997 RMK A01 T02730196  RH  063%=      5-min Rain = 0
KDO1 170739Z 19004KT 27/20 A2997 RMK A01 T02730196  RH  063%=      5-min Rain = 0
KDO1 170740Z 18004KT 27/20 A2997 RMK A01 T02730196  RH  063%=      5-min Rain = 0
KDO1 170741Z 18004KT 27/20 A2997 RMK A01 T02730196  RH  063%=      5-min Rain = 0
KDO1 170742Z 18004KT 27/20 A2997 RMK A01 T02720196  RH  063%=      5-min Rain = 0
KDO1 170743Z 18005KT 27/20 A2997 RMK A01 T02720196  RH  063%=      5-min Rain = 0
KDO1 170744Z 18004KT 27/20 A2997 RMK A01 T02710196  RH  063%=      5-min Rain = 0
KDO1 170745Z 18005KT 27/20 A2996 RMK A01 T02710196  RH  064%=      5-min Rain = 0
KDO1 170746Z 18005KT 27/20 A2996 RMK A01 T02710196  RH  064%=      5-min Rain = 0
KDO1 170747Z 17005KT 27/20 A2996 RMK A01 T02710196  RH  064%=      5-min Rain = 0
KDO1 170748Z 17006KT 27/20 A2996 RMK A01 T02710197  RH  064%=      5-min Rain = 0
KDO1 170749Z 17006KT 27/20 A2996 RMK A01 T02710196  RH  064%=      5-min Rain = 0
KDO1 170750Z 18006KT 27/20 A2996 RMK A01 T02710196  RH  064%=      5-min Rain = 0
KDO1 170751Z 17006KT 27/20 A2996 RMK A01 T02700196  RH  064%=      5-min Rain = 0
KDO1 170752Z 17006KT 27/20 A2996 RMK A01 T02710197  RH  064%=      5-min Rain = 0
KDO1 170753Z 18005KT 27/20 A2996 RMK A01 T02700197  RH  064%=      5-min Rain = 0
KDO1 170754Z 17005KT 27/20 A2996 RMK A01 T02700197  RH  064%=      5-min Rain = 0
KDO1 170755Z 17005KT 27/20 A2996 RMK A01 T02700197  RH  064%=      5-min Rain = 0
KDO1 170756Z 17005KT 27/20 A2996 RMK A01 T02690197  RH  065%=      5-min Rain = 0
KDO1 170757Z 17005KT 27/20 A2996 RMK A01 T02690197  RH  065%=      5-min Rain = 0
KDO1 170758Z 17006KT 27/20 A2996 RMK A01 T02700197  RH  065%=      5-min Rain = 0
KDO1 170759Z 17006KT 27/20 A2997 RMK A01 T02690197  RH  065%=      5-min Rain = 0
KDO1 170800Z 17006KT 27/20 A2997 RMK A01 T02690197  RH  065%=      5-min Rain = 0
KDO1 170801Z 17006KT 27/20 A2997 RMK A01 T02690197  RH  065%=      5-min Rain = 0
KDO1 170802Z 17006KT 27/20 A2997 RMK A01 T02690197  RH  065%=      5-min Rain = 0
KDO1 170803Z 17006KT 27/20 A2997 RMK A01 T02690197  RH  065%=      5-min Rain = 0
KDO1 170804Z 16006KT 27/20 A2997 RMK A01 T02680197  RH  065%=      5-min Rain = 0
KDO1 170805Z 17006KT 27/20 A2997 RMK A01 T02680197  RH  065%=      5-min Rain = 0
KDO1 170806Z 17005KT 27/20 A2997 RMK A01 T02680197  RH  065%=      5-min Rain = 0
KDO1 170807Z 17005KT 27/20 A2997 RMK A01 T02690197  RH  065%=      5-min Rain = 0
KDO1 170808Z 17005KT 27/20 A2997 RMK A01 T02680197  RH  065%=      5-min Rain = 0
KDO1 170809Z 17005KT 27/20 A2997 RMK A01 T02680197  RH  065%=      5-min Rain = 0
KDO1 170810Z 17005KT 27/20 A2997 RMK A01 T02680197  RH  065%=      5-min Rain = 0
KDO1 170811Z 16004KT 27/20 A2997 RMK A01 T02680198  RH  065%=      5-min Rain = 0
KDO1 170812Z 16005KT 27/20 A2997 RMK A01 T02680197  RH  065%=      5-min Rain = 0
KDO1 170813Z 17006KT 27/20 A2997 RMK A01 T02670197  RH  065%=      5-min Rain = 0
KDO1 170814Z 17005KT 27/20 A2997 RMK A01 T02670197  RH  065%=      5-min Rain = 0
KDO1 170815Z 17005KT 27/20 A2997 RMK A01 T02670197  RH  065%=      5-min Rain = 0
KDO1 170816Z 17005KT 27/20 A2997 RMK A01 T02670197  RH  065%=      5-min Rain = 0
KDO1 170817Z 18005KT 27/20 A2997 RMK A01 T02670197  RH  065%=      5-min Rain = 0
KDO1 170818Z 18005KT 27/20 A2997 RMK A01 T02670197  RH  065%=      5-min Rain = 0
KDO1 170819Z 18004KT 27/20 A2997 RMK A01 T02670197  RH  066%=      5-min Rain = 0
KDO1 170820Z 18004KT 27/20 A2997 RMK A01 T02670198  RH  066%=      5-min Rain = 0
KDO1 170821Z 18004KT 27/20 A2997 RMK A01 T02660198  RH  066%=      5-min Rain = 0
KDO1 170822Z 19004KT 27/20 A2997 RMK A01 T02660197  RH  066%=      5-min Rain = 0
KDO1 170823Z 19004KT 27/20 A2997 RMK A01 T02650198  RH  066%=      5-min Rain = 0
KDO1 170824Z 19004KT 26/20 A2997 RMK A01 T02640197  RH  067%=      5-min Rain = 0
KDO1 170825Z 18004KT 26/20 A2997 RMK A01 T02640197  RH  067%=      5-min Rain = 0
KDO1 170826Z 18004KT 26/20 A2997 RMK A01 T02630197  RH  067%=      5-min Rain = 0
KDO1 170827Z 18004KT 26/20 A2997 RMK A01 T02630197  RH  067%=      5-min Rain = 0
KDO1 170828Z 18004KT 26/20 A2997 RMK A01 T02620197  RH  067%=      5-min Rain = 0
KDO1 170829Z 18004KT 26/20 A2997 RMK A01 T02610197  RH  068%=      5-min Rain = 0
KDO1 170830Z 18004KT 26/20 A2997 RMK A01 T02610197  RH  068%=      5-min Rain = 0
KDO1 170831Z 17004KT 26/20 A2997 RMK A01 T02610197  RH  068%=      5-min Rain = 0
KDO1 170832Z 17004KT 26/20 A2997 RMK A01 T02600197  RH  068%=      5-min Rain = 0
KDO1 170833Z 16004KT 26/20 A2997 RMK A01 T02600197  RH  068%=      5-min Rain = 0
KDO1 170834Z 16004KT 26/20 A2997 RMK A01 T02600197  RH  068%=      5-min Rain = 0
KDO1 170835Z 16004KT 26/20 A2997 RMK A01 T02600197  RH  069%=      5-min Rain = 0
KDO1 170836Z 16005KT 26/20 A2997 RMK A01 T02590197  RH  069%=      5-min Rain = 0
KDO1 170837Z 16004KT 26/20 A2997 RMK A01 T02590197  RH  069%=      5-min Rain = 0
KDO1 170838Z 16005KT 26/20 A2997 RMK A01 T02590197  RH  069%=      5-min Rain = 0
KDO1 170839Z 16005KT 26/20 A2997 RMK A01 T02590197  RH  069%=      5-min Rain = 0
KDO1 170840Z 17005KT 26/20 A2997 RMK A01 T02590197  RH  068%=      5-min Rain = 0
KDO1 170841Z 17005KT 26/20 A2997 RMK A01 T02590197  RH  068%=      5-min Rain = 0
KDO1 170842Z 17005KT 26/20 A2997 RMK A01 T02600197  RH  068%=      5-min Rain = 0
KDO1 170843Z 17005KT 26/20 A2997 RMK A01 T02600197  RH  068%=      5-min Rain = 0
KDO1 170844Z 17004KT 26/20 A2997 RMK A01 T02600197  RH  068%=      5-min Rain = 0
KDO1 170845Z 17005KT 26/20 A2997 RMK A01 T02600197  RH  068%=      5-min Rain = 0
KDO1 170846Z 17005KT 26/20 A2997 RMK A01 T02600197  RH  068%=      5-min Rain = 0
KDO1 170847Z 17005KT 26/20 A2997 RMK A01 T02600197  RH  068%=      5-min Rain = 0
KDO1 170848Z 17005KT 26/20 A2997 RMK A01 T02610197  RH  068%=      5-min Rain = 0
KDO1 170849Z 17005KT 26/20 A2997 RMK A01 T02600197  RH  068%=      5-min Rain = 0
KDO1 170850Z 17005KT 26/20 A2997 RMK A01 T02610197  RH  068%=      5-min Rain = 0
KDO1 170851Z 17005KT 26/20 A2997 RMK A01 T02610197  RH  068%=      5-min Rain = 0
KDO1 170852Z 17005KT 26/20 A2997 RMK A01 T02610197  RH  068%=      5-min Rain = 0
KDO1 170853Z 17005KT 26/20 A2997 RMK A01 T02600197  RH  068%=      5-min Rain = 0
KDO1 170854Z 17005KT 26/20 A2997 RMK A01 T02610197  RH  068%=      5-min Rain = 0
KDO1 170855Z 17005KT 26/20 A2997 RMK A01 T02600197  RH  068%=      5-min Rain = 0
KDO1 170856Z 17005KT 26/20 A2997 RMK A01 T02610198  RH  068%=      5-min Rain = 0
KDO1 170857Z 18005KT 26/20 A2997 RMK A01 T02600198  RH  068%=      5-min Rain = 0
KDO1 170858Z 18004KT 26/20 A2997 RMK A01 T02600198  RH  068%=      5-min Rain = 0
KDO1 170859Z 18003KT 26/20 A2997 RMK A01 T02610198  RH  068%=      5-min Rain = 0
KDO1 170900Z 19004KT 26/20 A2997 RMK A01 T02610198  RH  069%=      5-min Rain = 0
KDO1 170901Z 19005KT 26/20 A2997 RMK A01 T02600198  RH  069%=      5-min Rain = 0
KDO1 170902Z 19005KT 26/20 A2997 RMK A01 T02600199  RH  069%=      5-min Rain = 0
KDO1 170903Z 19004KT 26/20 A2997 RMK A01 T02600198  RH  069%=      5-min Rain = 0
KDO1 170904Z 19004KT 26/20 A2997 RMK A01 T02600198  RH  069%=      5-min Rain = 0
KDO1 170905Z 19004KT 26/20 A2997 RMK A01 T02610198  RH  068%=      5-min Rain = 0
KDO1 170906Z 19004KT 26/20 A2997 RMK A01 T02610198  RH  068%=      5-min Rain = 0
KDO1 170907Z 20005KT 26/20 A2997 RMK A01 T02610199  RH  068%=      5-min Rain = 0
KDO1 170908Z 19004KT 26/20 A2997 RMK A01 T02610198  RH  068%=      5-min Rain = 0
KDO1 170909Z 19004KT 26/20 A2997 RMK A01 T02610198  RH  068%=      5-min Rain = 0
KDO1 170910Z 19004KT 26/20 A2997 RMK A01 T02620198  RH  068%=      5-min Rain = 0
KDO1 170911Z 19003KT 26/20 A2997 RMK A01 T02620198  RH  068%=      5-min Rain = 0
KDO1 170912Z 19004KT 26/20 A2997 RMK A01 T02620198  RH  068%=      5-min Rain = 0
KDO1 170913Z 20004KT 26/20 A2997 RMK A01 T02620199  RH  068%=      5-min Rain = 0
KDO1 170914Z 20003KT 26/20 A2997 RMK A01 T02620199  RH  068%=      5-min Rain = 0
KDO1 170915Z 21004KT 26/20 A2997 RMK A01 T02620199  RH  068%=      5-min Rain = 0
KDO1 170916Z 21004KT 26/20 A2997 RMK A01 T02620199  RH  068%=      5-min Rain = 0
KDO1 170917Z 21004KT 26/20 A2997 RMK A01 T02610199  RH  069%=      5-min Rain = 0
KDO1 170918Z 21004KT 26/20 A2997 RMK A01 T02610199  RH  069%=      5-min Rain = 0
KDO1 170919Z 21004KT 26/20 A2997 RMK A01 T02600199  RH  069%=      5-min Rain = 0
KDO1 170920Z 21004KT 26/20 A2997 RMK A01 T02600199  RH  069%=      5-min Rain = 0
KDO1 170921Z 21004KT 26/20 A2997 RMK A01 T02590199  RH  069%=      5-min Rain = 0
KDO1 170922Z 21005KT 26/20 A2997 RMK A01 T02590199  RH  070%=      5-min Rain = 0
KDO1 170923Z 21004KT 26/20 A2997 RMK A01 T02580199  RH  070%=      5-min Rain = 0
KDO1 170924Z 21005KT 26/20 A2997 RMK A01 T02570199  RH  070%=      5-min Rain = 0
KDO1 170925Z 21005KT 26/20 A2997 RMK A01 T02570199  RH  070%=      5-min Rain = 0
KDO1 170926Z 21005KT 26/20 A2996 RMK A01 T02570199  RH  070%=      5-min Rain = 0
KDO1 170927Z 20005KT 26/20 A2996 RMK A01 T02570199  RH  071%=      5-min Rain = 0
KDO1 170928Z 20005KT 26/20 A2996 RMK A01 T02570199  RH  071%=      5-min Rain = 0
KDO1 170929Z 20005KT 26/20 A2996 RMK A01 T02560199  RH  071%=      5-min Rain = 0
KDO1 170930Z 20005KT 26/20 A2996 RMK A01 T02570199  RH  071%=      5-min Rain = 0
KDO1 170931Z 19005KT 26/20 A2996 RMK A01 T02560199  RH  071%=      5-min Rain = 0
KDO1 170932Z 19005KT 26/20 A2996 RMK A01 T02560199  RH  071%=      5-min Rain = 0
KDO1 170933Z 19005KT 26/20 A2996 RMK A01 T02560199  RH  071%=      5-min Rain = 0
KDO1 170934Z 20005KT 26/20 A2996 RMK A01 T02560199  RH  071%=      5-min Rain = 0
KDO1 170935Z 19005KT 26/20 A2996 RMK A01 T02560199  RH  071%=      5-min Rain = 0
KDO1 170936Z 19005KT 26/20 A2996 RMK A01 T02560199  RH  071%=      5-min Rain = 0
KDO1 170937Z 19005KT 26/20 A2996 RMK A01 T02560199  RH  071%=      5-min Rain = 0
KDO1 170938Z 19005KT 26/20 A2996 RMK A01 T02550199  RH  071%=      5-min Rain = 0
KDO1 170939Z 19005KT 26/20 A2996 RMK A01 T02560199  RH  071%=      5-min Rain = 0
KDO1 170940Z 18005KT 26/20 A2996 RMK A01 T02550199  RH  071%=      5-min Rain = 0
KDO1 170941Z 18004KT 26/20 A2996 RMK A01 T02550199  RH  071%=      5-min Rain = 0
KDO1 170942Z 18004KT 25/20 A2996 RMK A01 T02540199  RH  072%=      5-min Rain = 0
KDO1 170943Z 18004KT 25/20 A2996 RMK A01 T02540199  RH  072%=      5-min Rain = 0
KDO1 170944Z 19004KT 25/20 A2996 RMK A01 T02530199  RH  072%=      5-min Rain = 0
KDO1 170945Z 19003KT 25/20 A2997 RMK A01 T02530199  RH  072%=      5-min Rain = 0
KDO1 170946Z 19003KT 25/20 A2997 RMK A01 T02520200  RH  073%=      5-min Rain = 0
KDO1 170947Z 19004KT 25/20 A2996 RMK A01 T02520200  RH  073%=      5-min Rain = 0
KDO1 170948Z 19003KT 25/20 A2996 RMK A01 T02510200  RH  073%=      5-min Rain = 0
KDO1 170949Z 19003KT 25/20 A2996 RMK A01 T02510200  RH  073%=      5-min Rain = 0
KDO1 170950Z 19003KT 25/20 A2996 RMK A01 T02500200  RH  073%=      5-min Rain = 0
KDO1 170951Z 17004KT 25/20 A2996 RMK A01 T02500200  RH  074%=      5-min Rain = 0
KDO1 170952Z 17004KT 25/20 A2996 RMK A01 T02500200  RH  074%=      5-min Rain = 0
KDO1 170953Z 18005KT 25/20 A2996 RMK A01 T02490199  RH  074%=      5-min Rain = 0
KDO1 170954Z 18004KT 25/20 A2996 RMK A01 T02500199  RH  074%=      5-min Rain = 0
KDO1 170955Z 18004KT 25/20 A2996 RMK A01 T02490199  RH  074%=      5-min Rain = 0
KDO1 170956Z 18004KT 25/20 A2996 RMK A01 T02490199  RH  074%=      5-min Rain = 0
KDO1 170957Z 18005KT 25/20 A2996 RMK A01 T02490199  RH  073%=      5-min Rain = 0
KDO1 170958Z 19005KT 25/20 A2996 RMK A01 T02500198  RH  073%=      5-min Rain = 0
KDO1 170959Z 19005KT 25/20 A2996 RMK A01 T02500198  RH  073%=      5-min Rain = 0
KDO1 171000Z 19004KT 25/20 A2996 RMK A01 T02510198  RH  073%=      5-min Rain = 0
KDO1 171001Z 19004KT 25/20 A2996 RMK A01 T02510198  RH  072%=      5-min Rain = 0
KDO1 171002Z 18004KT 25/20 A2996 RMK A01 T02510198  RH  072%=      5-min Rain = 0
KDO1 171003Z 18005KT 25/20 A2996 RMK A01 T02510198  RH  072%=      5-min Rain = 0
KDO1 171004Z 18005KT 25/20 A2996 RMK A01 T02510198  RH  072%=      5-min Rain = 0
KDO1 171005Z 18004KT 25/20 A2996 RMK A01 T02510198  RH  072%=      5-min Rain = 0
KDO1 171006Z 17005KT 25/20 A2996 RMK A01 T02510198  RH  072%=      5-min Rain = 0
KDO1 171007Z 17005KT 25/20 A2996 RMK A01 T02510198  RH  072%=      5-min Rain = 0
KDO1 171008Z 17005KT 25/20 A2996 RMK A01 T02510198  RH  072%=      5-min Rain = 0
KDO1 171009Z 17004KT 25/20 A2996 RMK A01 T02510198  RH  073%=      5-min Rain = 0
KDO1 171010Z 17005KT 25/20 A2996 RMK A01 T02510198  RH  073%=      5-min Rain = 0
KDO1 171011Z 17005KT 25/20 A2996 RMK A01 T02510199  RH  073%=      5-min Rain = 0
KDO1 171012Z 17005KT 25/20 A2996 RMK A01 T02500198  RH  073%=      5-min Rain = 0
KDO1 171013Z 17005KT 25/20 A2996 RMK A01 T02500198  RH  073%=      5-min Rain = 0
KDO1 171014Z 17005KT 25/20 A2996 RMK A01 T02500198  RH  073%=      5-min Rain = 0
KDO1 171015Z 17004KT 25/20 A2996 RMK A01 T02500198  RH  073%=      5-min Rain = 0
KDO1 171016Z 17004KT 25/20 A2996 RMK A01 T02500198  RH  073%=      5-min Rain = 0
KDO1 171017Z 17004KT 25/20 A2996 RMK A01 T02500199  RH  073%=      5-min Rain = 0
KDO1 171018Z 16004KT 25/20 A2996 RMK A01 T02500199  RH  073%=      5-min Rain = 0
KDO1 171019Z 16004KT 25/20 A2996 RMK A01 T02490198  RH  073%=      5-min Rain = 0
KDO1 171020Z 16004KT 25/20 A2996 RMK A01 T02490198  RH  074%=      5-min Rain = 0
KDO1 171021Z 16004KT 25/20 A2996 RMK A01 T02480198  RH  074%=      5-min Rain = 0
KDO1 171022Z 16004KT 25/20 A2996 RMK A01 T02480198  RH  074%=      5-min Rain = 0
KDO1 171023Z 16004KT 25/20 A2996 RMK A01 T02480199  RH  074%=      5-min Rain = 0
KDO1 171024Z 16004KT 25/20 A2996 RMK A01 T02480198  RH  074%=      5-min Rain = 0
KDO1 171025Z 16004KT 25/20 A2996 RMK A01 T02480199  RH  074%=      5-min Rain = 0
KDO1 171026Z 17004KT 25/20 A2996 RMK A01 T02480199  RH  074%=      5-min Rain = 0
KDO1 171027Z 17004KT 25/20 A2996 RMK A01 T02470198  RH  074%=      5-min Rain = 0
KDO1 171028Z 17003KT 25/20 A2996 RMK A01 T02470198  RH  074%=      5-min Rain = 0
KDO1 171029Z 16003KT 25/20 A2996 RMK A01 T02470198  RH  074%=      5-min Rain = 0
KDO1 171030Z 17003KT 25/20 A2996 RMK A01 T02470198  RH  074%=      5-min Rain = 0
KDO1 171031Z 17003KT 25/20 A2996 RMK A01 T02470198  RH  074%=      5-min Rain = 0
KDO1 171032Z 17003KT 25/20 A2996 RMK A01 T02460198  RH  074%=      5-min Rain = 0
KDO1 171033Z 17003KT 25/20 A2996 RMK A01 T02470198  RH  074%=      5-min Rain = 0
KDO1 171034Z 17003KT 25/20 A2996 RMK A01 T02470198  RH  074%=      5-min Rain = 0
KDO1 171035Z 17003KT 25/20 A2996 RMK A01 T02460198  RH  075%=      5-min Rain = 0
KDO1 171036Z 17003KT 25/20 A2996 RMK A01 T02460198  RH  075%=      5-min Rain = 0
KDO1 171037Z 17003KT 25/20 A2996 RMK A01 T02460198  RH  075%=      5-min Rain = 0
KDO1 171038Z 17003KT 25/20 A2996 RMK A01 T02460198  RH  075%=      5-min Rain = 0
KDO1 171039Z 18003KT 25/20 A2996 RMK A01 T02450198  RH  075%=      5-min Rain = 0
KDO1 171040Z 18003KT 25/20 A2996 RMK A01 T02450198  RH  075%=      5-min Rain = 0
KDO1 171041Z 18003KT 25/20 A2996 RMK A01 T02450198  RH  075%=      5-min Rain = 0
KDO1 171042Z 18003KT 25/20 A2997 RMK A01 T02450198  RH  075%=      5-min Rain = 0
KDO1 171043Z 17003KT 25/20 A2997 RMK A01 T02450198  RH  075%=      5-min Rain = 0
KDO1 171044Z 17003KT 25/20 A2997 RMK A01 T02450198  RH  075%=      5-min Rain = 0
KDO1 171045Z 17003KT 25/20 A2997 RMK A01 T02450198  RH  075%=      5-min Rain = 0
KDO1 171046Z 17002KT 25/20 A2997 RMK A01 T02450198  RH  075%=      5-min Rain = 0
KDO1 171047Z 17003KT 24/20 A2997 RMK A01 T02440198  RH  075%=      5-min Rain = 0
KDO1 171048Z 16003KT 24/20 A2997 RMK A01 T02440198  RH  075%=      5-min Rain = 0
KDO1 171049Z 17003KT 24/20 A2997 RMK A01 T02440198  RH  076%=      5-min Rain = 0
KDO1 171050Z 17003KT 24/20 A2997 RMK A01 T02430198  RH  076%=      5-min Rain = 0
KDO1 171051Z 16003KT 24/20 A2997 RMK A01 T02430198  RH  076%=      5-min Rain = 0
KDO1 171052Z 16003KT 24/20 A2997 RMK A01 T02430198  RH  076%=      5-min Rain = 0
KDO1 171053Z 16004KT 24/20 A2997 RMK A01 T02430198  RH  076%=      5-min Rain = 0
KDO1 171054Z 15004KT 24/20 A2997 RMK A01 T02440198  RH  076%=      5-min Rain = 0
KDO1 171055Z 14004KT 24/20 A2997 RMK A01 T02430198  RH  076%=      5-min Rain = 0
KDO1 171056Z 14004KT 24/20 A2997 RMK A01 T02430198  RH  076%=      5-min Rain = 0
KDO1 171057Z 14004KT 24/20 A2997 RMK A01 T02430199  RH  076%=      5-min Rain = 0
KDO1 171058Z 13003KT 24/20 A2997 RMK A01 T02420199  RH  077%=      5-min Rain = 0
KDO1 171059Z 14004KT 24/20 A2997 RMK A01 T02410198  RH  077%=      5-min Rain = 0
KDO1 171100Z 13003KT 24/20 A2997 RMK A01 T02410198  RH  077%=      5-min Rain = 0
KDO1 171101Z 13004KT 24/20 A2997 RMK A01 T02400199  RH  078%=      5-min Rain = 0
KDO1 171102Z 13004KT 24/20 A2997 RMK A01 T02400199  RH  078%=      5-min Rain = 0
KDO1 171103Z 13004KT 24/20 A2997 RMK A01 T02390199  RH  078%=      5-min Rain = 0
KDO1 171104Z 13004KT 24/20 A2997 RMK A01 T02380198  RH  078%=      5-min Rain = 0
KDO1 171105Z 13004KT 24/20 A2997 RMK A01 T02380198  RH  079%=      5-min Rain = 0
KDO1 171106Z 13004KT 24/20 A2997 RMK A01 T02370198  RH  079%=      5-min Rain = 0
KDO1 171107Z 14004KT 24/20 A2997 RMK A01 T02370199  RH  079%=      5-min Rain = 0
KDO1 171108Z 13004KT 24/20 A2997 RMK A01 T02360199  RH  079%=      5-min Rain = 0
KDO1 171109Z 14003KT 24/20 A2997 RMK A01 T02360198  RH  080%=      5-min Rain = 0
KDO1 171110Z 14004KT 24/20 A2997 RMK A01 T02360199  RH  080%=      5-min Rain = 0
KDO1 171111Z 13004KT 24/20 A2997 RMK A01 T02360199  RH  080%=      5-min Rain = 0
KDO1 171112Z 13004KT 24/20 A2997 RMK A01 T02360199  RH  080%=      5-min Rain = 0
KDO1 171113Z 13003KT 24/20 A2997 RMK A01 T02360199  RH  080%=      5-min Rain = 0
KDO1 171114Z 13003KT 24/20 A2997 RMK A01 T02360199  RH  080%=      5-min Rain = 0
KDO1 171115Z 13003KT 24/20 A2997 RMK A01 T02360199  RH  080%=      5-min Rain = 0
KDO1 171116Z 14003KT 24/20 A2997 RMK A01 T02350199  RH  080%=      5-min Rain = 0
KDO1 171117Z 14003KT 24/20 A2997 RMK A01 T02350199  RH  080%=      5-min Rain = 0
KDO1 171118Z 13003KT 24/20 A2997 RMK A01 T02350199  RH  080%=      5-min Rain = 0
KDO1 171119Z 13003KT 24/20 A2997 RMK A01 T02360199  RH  080%=      5-min Rain = 0
KDO1 171120Z 14003KT 24/20 A2997 RMK A01 T02360199  RH  080%=      5-min Rain = 0
KDO1 171121Z 14003KT 24/20 A2997 RMK A01 T02360199  RH  079%=      5-min Rain = 0
KDO1 171122Z 14003KT 24/20 A2997 RMK A01 T02370199  RH  079%=      5-min Rain = 0
KDO1 171123Z 14003KT 24/20 A2997 RMK A01 T02370199  RH  079%=      5-min Rain = 0
KDO1 171124Z 14003KT 24/20 A2997 RMK A01 T02370199  RH  079%=      5-min Rain = 0
KDO1 171125Z 14003KT 24/20 A2997 RMK A01 T02380198  RH  079%=      5-min Rain = 0
KDO1 171126Z 14002KT 24/20 A2997 RMK A01 T02380199  RH  078%=      5-min Rain = 0
KDO1 171127Z 14002KT 24/20 A2997 RMK A01 T02380199  RH  078%=      5-min Rain = 0
KDO1 171128Z 15003KT 24/20 A2997 RMK A01 T02380198  RH  078%=      5-min Rain = 0
KDO1 171129Z 15002KT 24/20 A2997 RMK A01 T02380198  RH  078%=      5-min Rain = 0
KDO1 171130Z 15002KT 24/20 A2997 RMK A01 T02380198  RH  078%=      5-min Rain = 0
KDO1 171131Z 15003KT 24/20 A2997 RMK A01 T02380198  RH  078%=      5-min Rain = 0
KDO1 171132Z 15003KT 24/20 A2997 RMK A01 T02380198  RH  078%=      5-min Rain = 0
KDO1 171133Z 15003KT 24/20 A2997 RMK A01 T02380198  RH  078%=      5-min Rain = 0
KDO1 171134Z 16003KT 24/20 A2997 RMK A01 T02380197  RH  078%=      5-min Rain = 0
KDO1 171135Z 15003KT 24/20 A2997 RMK A01 T02390198  RH  078%=      5-min Rain = 0
KDO1 171136Z 16003KT 24/20 A2997 RMK A01 T02390198  RH  077%=      5-min Rain = 0
KDO1 171137Z 16003KT 24/20 A2997 RMK A01 T02400198  RH  077%=      5-min Rain = 0
KDO1 171138Z 15003KT 24/20 A2997 RMK A01 T02400198  RH  077%=      5-min Rain = 0
KDO1 171139Z 15003KT 24/20 A2997 RMK A01 T02400198  RH  077%=      5-min Rain = 0
KDO1 171140Z 15003KT 24/20 A2998 RMK A01 T02400197  RH  077%=      5-min Rain = 0
KDO1 171141Z 16003KT 24/20 A2998 RMK A01 T02400198  RH  077%=      5-min Rain = 0
KDO1 171142Z 16003KT 24/20 A2998 RMK A01 T02400198  RH  077%=      5-min Rain = 0
KDO1 171143Z 16003KT 24/20 A2998 RMK A01 T02400198  RH  077%=      5-min Rain = 0
KDO1 171144Z 17003KT 24/20 A2998 RMK A01 T02390198  RH  077%=      5-min Rain = 0
KDO1 171145Z 17003KT 24/20 A2998 RMK A01 T02390198  RH  078%=      5-min Rain = 0
KDO1 171146Z 17004KT 24/20 A2998 RMK A01 T02390198  RH  078%=      5-min Rain = 0
KDO1 171147Z 17003KT 24/20 A2997 RMK A01 T02390198  RH  078%=      5-min Rain = 0
KDO1 171148Z 17003KT 24/20 A2997 RMK A01 T02380198  RH  078%=      5-min Rain = 0
KDO1 171149Z 17004KT 24/20 A2997 RMK A01 T02380198  RH  078%=      5-min Rain = 0
KDO1 171150Z 17004KT 24/20 A2997 RMK A01 T02380198  RH  078%=      5-min Rain = 0
KDO1 171151Z 18003KT 24/20 A2997 RMK A01 T02380198  RH  078%=      5-min Rain = 0
KDO1 171152Z 18004KT 24/20 A2997 RMK A01 T02380198  RH  078%=      5-min Rain = 0
KDO1 171153Z 18003KT 24/20 A2997 RMK A01 T02380198  RH  078%=      5-min Rain = 0
KDO1 171154Z 18004KT 24/20 A2997 RMK A01 T02370198  RH  078%=      5-min Rain = 0
KDO1 171155Z 18004KT 24/20 A2997 RMK A01 T02370197  RH  078%=      5-min Rain = 0
KDO1 171156Z 18003KT 24/20 A2997 RMK A01 T02380198  RH  078%=      5-min Rain = 0
KDO1 171157Z 18003KT 24/20 A2997 RMK A01 T02380197  RH  078%=      5-min Rain = 0
KDO1 171158Z 18004KT 24/20 A2997 RMK A01 T02380198  RH  078%=      5-min Rain = 0
KDO1 171159Z 18004KT 24/20 A2997 RMK A01 T02390198  RH  078%=      5-min Rain = 0
KDO1 171200Z 17004KT 24/20 A2997 RMK A01 T02380197  RH  078%=      5-min Rain = 0
KDO1 171201Z 17004KT 24/20 A2997 RMK A01 T02390198  RH  078%=      5-min Rain = 0
KDO1 171202Z 17004KT 24/20 A2997 RMK A01 T02390197  RH  078%=      5-min Rain = 0
KDO1 171203Z 17005KT 24/20 A2997 RMK A01 T02390198  RH  077%=      5-min Rain = 0
KDO1 171204Z 17005KT 24/20 A2997 RMK A01 T02390197  RH  077%=      5-min Rain = 0
KDO1 171205Z 17005KT 24/20 A2997 RMK A01 T02390197  RH  077%=      5-min Rain = 0
KDO1 171206Z 17006KT 24/20 A2997 RMK A01 T02400198  RH  077%=      5-min Rain = 0
KDO1 171207Z 17005KT 24/20 A2997 RMK A01 T02400198  RH  077%=      5-min Rain = 0
KDO1 171208Z 17005KT 24/20 A2997 RMK A01 T02400198  RH  077%=      5-min Rain = 0
KDO1 171209Z 17005KT 24/20 A2997 RMK A01 T02400198  RH  077%=      5-min Rain = 0
KDO1 171210Z 18004KT 24/20 A2997 RMK A01 T02410198  RH  077%=      5-min Rain = 0
KDO1 171211Z 18004KT 24/20 A2998 RMK A01 T02410198  RH  077%=      5-min Rain = 0
KDO1 171212Z 17004KT 24/20 A2998 RMK A01 T02410199  RH  077%=      5-min Rain = 0
KDO1 171213Z 18004KT 24/20 A2998 RMK A01 T02410199  RH  077%=      5-min Rain = 0
KDO1 171214Z 18004KT 24/20 A2998 RMK A01 T02410199  RH  078%=      5-min Rain = 0
KDO1 171215Z 17004KT 24/20 A2998 RMK A01 T02410199  RH  078%=      5-min Rain = 0
KDO1 171216Z 17004KT 24/20 A2998 RMK A01 T02410199  RH  078%=      5-min Rain = 0
KDO1 171217Z 17004KT 24/20 A2998 RMK A01 T02410199  RH  077%=      5-min Rain = 0
KDO1 171218Z 17004KT 24/20 A2998 RMK A01 T02410198  RH  077%=      5-min Rain = 0
KDO1 171219Z 17004KT 24/20 A2998 RMK A01 T02420199  RH  077%=      5-min Rain = 0
KDO1 171220Z 18004KT 24/20 A2998 RMK A01 T02420199  RH  077%=      5-min Rain = 0
KDO1 171221Z 18003KT 24/20 A2998 RMK A01 T02420199  RH  077%=      5-min Rain = 0
KDO1 171222Z 18003KT 24/20 A2998 RMK A01 T02430200  RH  077%=      5-min Rain = 0
KDO1 171223Z 18004KT 24/20 A2998 RMK A01 T02430200  RH  077%=      5-min Rain = 0
KDO1 171224Z 18003KT 24/20 A2998 RMK A01 T02430200  RH  076%=      5-min Rain = 0
KDO1 171225Z 18004KT 24/20 A2998 RMK A01 T02440200  RH  076%=      5-min Rain = 0
KDO1 171226Z 17003KT 24/20 A2998 RMK A01 T02440200  RH  076%=      5-min Rain = 0
KDO1 171227Z 17003KT 24/20 A2998 RMK A01 T02440200  RH  076%=      5-min Rain = 0
KDO1 171228Z 17003KT 24/20 A2998 RMK A01 T02440200  RH  076%=      5-min Rain = 0
KDO1 171229Z 17003KT 24/20 A2998 RMK A01 T02440200  RH  076%=      5-min Rain = 0
KDO1 171230Z 18002KT 25/20 A2998 RMK A01 T02450201  RH  076%=      5-min Rain = 0
KDO1 171231Z 18002KT 25/20 A2998 RMK A01 T02450200  RH  076%=      5-min Rain = 0
KDO1 171232Z 18002KT 25/20 A2998 RMK A01 T02450200  RH  076%=      5-min Rain = 0
KDO1 171233Z 18002KT 25/20 A2998 RMK A01 T02450200  RH  076%=      5-min Rain = 0
KDO1 171234Z 18003KT 25/20 A2998 RMK A01 T02450200  RH  076%=      5-min Rain = 0
KDO1 171235Z 17002KT 25/20 A2998 RMK A01 T02460200  RH  076%=      5-min Rain = 0
KDO1 171236Z 19003KT 25/20 A2998 RMK A01 T02460200  RH  076%=      5-min Rain = 0
KDO1 171237Z 19002KT 25/20 A2998 RMK A01 T02460200  RH  076%=      5-min Rain = 0
KDO1 171238Z 19003KT 25/20 A2998 RMK A01 T02470201  RH  076%=      5-min Rain = 0
KDO1 171239Z 19003KT 25/20 A2998 RMK A01 T02470201  RH  075%=      5-min Rain = 0
KDO1 171240Z 19002KT 25/20 A2998 RMK A01 T02480201  RH  075%=      5-min Rain = 0
KDO1 171241Z 19003KT 25/20 A2998 RMK A01 T02480201  RH  075%=      5-min Rain = 0
KDO1 171242Z 19004KT 25/20 A2998 RMK A01 T02480201  RH  075%=      5-min Rain = 0
KDO1 171243Z 19003KT 25/20 A2999 RMK A01 T02490201  RH  075%=      5-min Rain = 0
KDO1 171244Z 19003KT 25/20 A2999 RMK A01 T02500202  RH  075%=      5-min Rain = 0
KDO1 171245Z 18003KT 25/20 A2999 RMK A01 T02500202  RH  075%=      5-min Rain = 0
KDO1 171246Z 19005KT 25/20 A2999 RMK A01 T02510202  RH  074%=      5-min Rain = 0
KDO1 171247Z 18005KT 25/20 A2999 RMK A01 T02520201  RH  073%=      5-min Rain = 0
KDO1 171248Z 17005KT 25/20 A2999 RMK A01 T02530200  RH  073%=      5-min Rain = 0
KDO1 171249Z 18005KT 25/20 A2999 RMK A01 T02530201  RH  072%=      5-min Rain = 0
KDO1 171250Z 18005KT 25/20 A2999 RMK A01 T02540201  RH  073%=      5-min Rain = 0
KDO1 171251Z 17005KT 25/20 A2999 RMK A01 T02540200  RH  072%=      5-min Rain = 0
KDO1 171252Z 18006KT 26/20 A2999 RMK A01 T02550200  RH  072%=      5-min Rain = 0
KDO1 171253Z 17006KT 26/20 A2999 RMK A01 T02560201  RH  072%=      5-min Rain = 0
KDO1 171254Z 17006KT 26/20 A2999 RMK A01 T02570200  RH  071%=      5-min Rain = 0
KDO1 171255Z 17006KT 26/20 A2999 RMK A01 T02570200  RH  071%=      5-min Rain = 0
KDO1 171256Z 17006KT 26/20 A2999 RMK A01 T02580200  RH  071%=      5-min Rain = 0
KDO1 171257Z 17006KT 26/20 A2999 RMK A01 T02580200  RH  070%=      5-min Rain = 0
KDO1 171258Z 17006KT 26/20 A2999 RMK A01 T02590201  RH  070%=      5-min Rain = 0
KDO1 171259Z 18007KT 26/20 A2999 RMK A01 T02590200  RH  070%=      5-min Rain = 0
KDO1 171300Z 17007KT 26/20 A2999 RMK A01 T02590200  RH  070%=      5-min Rain = 0
KDO1 171301Z 17006KT 26/20 A2999 RMK A01 T02600201  RH  070%=      5-min Rain = 0
KDO1 171302Z 17006KT 26/20 A2999 RMK A01 T02610201  RH  070%=      5-min Rain = 0
KDO1 171303Z 17008KT 26/20 A2999 RMK A01 T02620201  RH  069%=      5-min Rain = 0
KDO1 171304Z 17007KT 26/20 A2999 RMK A01 T02630201  RH  068%=      5-min Rain = 0
KDO1 171305Z 17007KT 26/20 A2999 RMK A01 T02630200  RH  068%=      5-min Rain = 0
KDO1 171306Z 17007KT 26/20 A2999 RMK A01 T02630200  RH  068%=      5-min Rain = 0
KDO1 171307Z 17007KT 26/20 A2999 RMK A01 T02640200  RH  068%=      5-min Rain = 0
KDO1 171308Z 17006KT 26/20 A2999 RMK A01 T02640201  RH  068%=      5-min Rain = 0
KDO1 171309Z 17006KT 27/20 A2999 RMK A01 T02650202  RH  068%=      5-min Rain = 0
KDO1 171310Z 17008KT 27/20 A2999 RMK A01 T02660201  RH  068%=      5-min Rain = 0
KDO1 171311Z 17009KT 27/20 A2999 RMK A01 T02660200  RH  067%=      5-min Rain = 0
KDO1 171312Z 17007KT 27/20 A2999 RMK A01 T02660199  RH  067%=      5-min Rain = 0
KDO1 171313Z 18006KT 27/20 A2999 RMK A01 T02670201  RH  067%=      5-min Rain = 0
KDO1 171314Z 17005KT 27/20 A2999 RMK A01 T02680202  RH  067%=      5-min Rain = 0
KDO1 171315Z 17006KT 27/20 A2999 RMK A01 T02690202  RH  067%=      5-min Rain = 0
KDO1 171316Z 18006KT 27/20 A2999 RMK A01 T02700202  RH  066%=      5-min Rain = 0
KDO1 171317Z 17006KT 27/20 A2999 RMK A01 T02710202  RH  066%=      5-min Rain = 0
KDO1 171318Z 16008KT 27/20 A2999 RMK A01 T02710201  RH  066%=      5-min Rain = 0
KDO1 171319Z 17007KT 27/20 A2999 RMK A01 T02710200  RH  065%=      5-min Rain = 0
KDO1 171320Z 17006KT 27/20 A2999 RMK A01 T02710201  RH  066%=      5-min Rain = 0
KDO1 171321Z 18006KT 27/20 A2999 RMK A01 T02710200  RH  065%=      5-min Rain = 0
KDO1 171322Z 18006KT 27/20 A2999 RMK A01 T02720200  RH  065%=      5-min Rain = 0
KDO1 171323Z 18008KT 27/20 A30 RMK A01 T02720201  RH  065%=      5-min Rain = 0
KDO1 171324Z 18008KT 27/20 A30 RMK A01 T02730200  RH  064%=      5-min Rain = 0
KDO1 171325Z 18007KT 27/20 A30 RMK A01 T02740200  RH  064%=      5-min Rain = 0
KDO1 171326Z 17005KT 27/20 A30 RMK A01 T02740200  RH  064%=      5-min Rain = 0
KDO1 171327Z 17006KT 28/20 A30 RMK A01 T02750201  RH  064%=      5-min Rain = 0
KDO1 171328Z 16006KT 28/20 A30 RMK A01 T02760201  RH  064%=      5-min Rain = 0
KDO1 171329Z 17005KT 28/20 A30 RMK A01 T02770201  RH  063%=      5-min Rain = 0
KDO1 171330Z 18006KT 28/20 A30 RMK A01 T02760201  RH  063%=      5-min Rain = 0
KDO1 171331Z 18006KT 28/20 A30 RMK A01 T02770201  RH  063%=      5-min Rain = 0
KDO1 171332Z 17007KT 28/20 A30 RMK A01 T02770200  RH  063%=      5-min Rain = 0
KDO1 171333Z 18006KT 28/20 A30 RMK A01 T02770199  RH  063%=      5-min Rain = 0
KDO1 171334Z 17006KT 28/20 A30 RMK A01 T02770201  RH  063%=      5-min Rain = 0
KDO1 171335Z 18006KT 28/20 A30 RMK A01 T02780201  RH  063%=      5-min Rain = 0
KDO1 171336Z 17006KT 28/20 A30 RMK A01 T02790200  RH  062%=      5-min Rain = 0
KDO1 171337Z 18006KT 28/20 A30 RMK A01 T02800202  RH  062%=      5-min Rain = 0
KDO1 171338Z 17006KT 28/20 A30 RMK A01 T02810200  RH  062%=      5-min Rain = 0
KDO1 171339Z 16006KT 28/20 A30 RMK A01 T02810200  RH  061%=      5-min Rain = 0
KDO1 171340Z 18006KT 28/20 A30 RMK A01 T02810200  RH  061%=      5-min Rain = 0
KDO1 171341Z 18007KT 28/20 A30 RMK A01 T02810200  RH  062%=      5-min Rain = 0
KDO1 171342Z 17007KT 28/20 A30 RMK A01 T02810201  RH  062%=      5-min Rain = 0
KDO1 171343Z 18009KT 28/20 A30 RMK A01 T02810200  RH  061%=      5-min Rain = 0
KDO1 171344Z 18007KT 28/20 A30 RMK A01 T02810200  RH  061%=      5-min Rain = 0
KDO1 171345Z 18006KT 28/20 A30 RMK A01 T02810200  RH  062%=      5-min Rain = 0
KDO1 171346Z 18006KT 28/20 A30 RMK A01 T02800200  RH  062%=      5-min Rain = 0
KDO1 171347Z 19006KT 28/20 A30 RMK A01 T02800202  RH  062%=      5-min Rain = 0
KDO1 171348Z 18008KT 28/20 A30 RMK A01 T02820201  RH  062%=      5-min Rain = 0
KDO1 171349Z 17006KT 28/20 A30 RMK A01 T02830200  RH  061%=      5-min Rain = 0
KDO1 171350Z 17006KT 28/20 A30 RMK A01 T02830201  RH  061%=      5-min Rain = 0
KDO1 171351Z 17008KT 28/20 A30 RMK A01 T02830200  RH  061%=      5-min Rain = 0
KDO1 171352Z 18006KT 28/20 A30 RMK A01 T02830201  RH  061%=      5-min Rain = 0
KDO1 171353Z 18008KT 28/20 A30 RMK A01 T02840201  RH  061%=      5-min Rain = 0
KDO1 171354Z 18009KT 29/20 A30 RMK A01 T02850201  RH  060%=      5-min Rain = 0
KDO1 171355Z 18009KT 29/20 A30 RMK A01 T02860201  RH  060%=      5-min Rain = 0
KDO1 171356Z 18008KT 29/20 A30 RMK A01 T02860202  RH  060%=      5-min Rain = 0
KDO1 171357Z 18009KT 29/20 A30 RMK A01 T02860201  RH  060%=      5-min Rain = 0
KDO1 171358Z 18007KT 29/20 A30 RMK A01 T02860200  RH  060%=      5-min Rain = 0
KDO1 171359Z 18008KT 29/20 A30 RMK A01 T02850202  RH  061%=      5-min Rain = 0
KDO1 171400Z 18007KT 29/20 A30 RMK A01 T02850201  RH  060%=      5-min Rain = 0
KDO1 171401Z 17007KT 29/20 A30 RMK A01 T02870204  RH  061%=      5-min Rain = 0
KDO1 171402Z 18008KT 29/20 A30 RMK A01 T02880202  RH  060%=      5-min Rain = 0
KDO1 171403Z 18007KT 29/20 A30 RMK A01 T02890202  RH  059%=      5-min Rain = 0
KDO1 171404Z 17007KT 29/20 A30 RMK A01 T02890203  RH  060%=      5-min Rain = 0
KDO1 171405Z 18009KT 29/20 A30 RMK A01 T02900202  RH  059%=      5-min Rain = 0
KDO1 171406Z 17009KT 29/20 A30 RMK A01 T02900203  RH  059%=      5-min Rain = 0
KDO1 171407Z 17009KT 29/20 A30 RMK A01 T02900202  RH  059%=      5-min Rain = 0
KDO1 171408Z 17008KT 29/20 A30 RMK A01 T02900202  RH  059%=      5-min Rain = 0
KDO1 171409Z 18007KT 29/20 A30 RMK A01 T02900203  RH  059%=      5-min Rain = 0
KDO1 171410Z 16007G12KT 29/20 A30 RMK A01 T02910203  RH  059%=      5-min Rain = 0
KDO1 171411Z 17010KT 29/20 A30 RMK A01 T02910202  RH  059%=      5-min Rain = 0
KDO1 171412Z 17010KT 29/20 A30 RMK A01 T02910202  RH  059%=      5-min Rain = 0
KDO1 171413Z 16008KT 29/20 A30 RMK A01 T02910203  RH  059%=      5-min Rain = 0
KDO1 171414Z 17009KT 29/20 A30 RMK A01 T02910203  RH  059%=      5-min Rain = 0
KDO1 171415Z 17008KT 29/20 A30 RMK A01 T02910204  RH  059%=      5-min Rain = 0
KDO1 171416Z 17010KT 29/20 A30 RMK A01 T02910204  RH  059%=      5-min Rain = 0
KDO1 171417Z 17008KT 29/20 A30 RMK A01 T02920203  RH  059%=      5-min Rain = 0
KDO1 171418Z 17008KT 29/20 A30 RMK A01 T02920204  RH  059%=      5-min Rain = 0
KDO1 171419Z 17008KT 29/20 A30 RMK A01 T02930204  RH  059%=      5-min Rain = 0
KDO1 171420Z 17007KT 29/21 A30 RMK A01 T02930205  RH  059%=      5-min Rain = 0
KDO1 171421Z 18005KT 30/21 A30 RMK A01 T02950206  RH  059%=      5-min Rain = 0
KDO1 171422Z 19008KT 30/21 A30 RMK A01 T02970206  RH  058%=      5-min Rain = 0
KDO1 171423Z 18011KT 30/21 A30 RMK A01 T02970205  RH  058%=      5-min Rain = 0
KDO1 171424Z 18009KT 30/20 A30 RMK A01 T02980204  RH  057%=      5-min Rain = 0
KDO1 171425Z 18011KT 30/20 A30 RMK A01 T02980203  RH  057%=      5-min Rain = 0
KDO1 171426Z 18010KT 30/20 A30 RMK A01 T02970203  RH  057%=      5-min Rain = 0
KDO1 171427Z 18010KT 30/20 A30 RMK A01 T02970203  RH  057%=      5-min Rain = 0
KDO1 171428Z 18010KT 30/20 A30 RMK A01 T02970202  RH  057%=      5-min Rain = 0
KDO1 171429Z 18008KT 30/20 A30 RMK A01 T02970203  RH  057%=      5-min Rain = 0
KDO1 171430Z 17008KT 30/20 A30 RMK A01 T02990204  RH  057%=      5-min Rain = 0
KDO1 171431Z 18009KT 30/21 A30 RMK A01 T03010205  RH  056%=      5-min Rain = 0
KDO1 171432Z 18009KT 30/20 A30 RMK A01 T03020204  RH  056%=      5-min Rain = 0
KDO1 171433Z 18010KT 30/20 A30 RMK A01 T03010204  RH  056%=      5-min Rain = 0
KDO1 171434Z 18009KT 30/20 A30 RMK A01 T03010204  RH  056%=      5-min Rain = 0
KDO1 171435Z 19007KT 30/20 A30 RMK A01 T03010204  RH  056%=      5-min Rain = 0
KDO1 171436Z 19009KT 30/20 A30 RMK A01 T03020204  RH  056%=      5-min Rain = 0
KDO1 171437Z 17008G13KT 30/21 A30 RMK A01 T03010205  RH  056%=      5-min Rain = 0
KDO1 171438Z 18010KT 30/20 A30 RMK A01 T03020204  RH  056%=      5-min Rain = 0
KDO1 171439Z 20007KT 30/21 A30 RMK A01 T03030206  RH  056%=      5-min Rain = 0
KDO1 171440Z 19010KT 31/21 A30 RMK A01 T03050205  RH  055%=      5-min Rain = 0
KDO1 171441Z 20010KT 30/20 A30 RMK A01 T03040203  RH  055%=      5-min Rain = 0
KDO1 171442Z 20010KT 30/20 A30 RMK A01 T03030204  RH  055%=      5-min Rain = 0
KDO1 171443Z 19010KT 30/20 A30 RMK A01 T03030204  RH  056%=      5-min Rain = 0
KDO1 171444Z 19011KT 30/21 A30 RMK A01 T03030205  RH  056%=      5-min Rain = 0
KDO1 171445Z 18010G15KT 31/20 A30 RMK A01 T03050204  RH  055%=      5-min Rain = 0
KDO1 171446Z 18009KT 31/20 A30 RMK A01 T03050204  RH  055%=      5-min Rain = 0
KDO1 171447Z 18012KT 31/20 A30 RMK A01 T03070203  RH  054%=      5-min Rain = 0
KDO1 171448Z 19010KT 31/20 A30 RMK A01 T03060202  RH  054%=      5-min Rain = 0
KDO1 171449Z 20009KT 30/20 A30 RMK A01 T03040204  RH  055%=      5-min Rain = 0
KDO1 171450Z 20009KT 31/21 A30 RMK A01 T03050206  RH  055%=      5-min Rain = 0
KDO1 171451Z 20012KT 31/21 A30 RMK A01 T03080206  RH  055%=      5-min Rain = 0
KDO1 171452Z 20012KT 31/20 A30 RMK A01 T03080204  RH  054%=      5-min Rain = 0
KDO1 171453Z 19011KT 31/20 A30 RMK A01 T03080204  RH  054%=      5-min Rain = 0
KDO1 171454Z 20011KT 31/20 A30 RMK A01 T03080204  RH  054%=      5-min Rain = 0
KDO1 171455Z 19012KT 31/20 A30 RMK A01 T03080203  RH  053%=      5-min Rain = 0
KDO1 171456Z 20012KT 31/20 A30 RMK A01 T03080203  RH  054%=      5-min Rain = 0
KDO1 171457Z 19012KT 31/20 A30 RMK A01 T03070203  RH  054%=      5-min Rain = 0
KDO1 171458Z 19009KT 31/20 A30 RMK A01 T03070203  RH  054%=      5-min Rain = 0
KDO1 171459Z 19011KT 31/21 A30 RMK A01 T03070205  RH  054%=      5-min Rain = 0
KDO1 171500Z 19013KT 31/20 A30 RMK A01 T03080204  RH  054%=      5-min Rain = 0
KDO1 171501Z 18011KT 31/21 A30 RMK A01 T03080205  RH  054%=      5-min Rain = 0
KDO1 171502Z 18010KT 31/21 A30 RMK A01 T03090205  RH  054%=      5-min Rain = 0
KDO1 171503Z 19010G15KT 31/21 A30 RMK A01 T03110206  RH  054%=      5-min Rain = 0
KDO1 171504Z 20010KT 31/21 A30 RMK A01 T03120206  RH  053%=      5-min Rain = 0
KDO1 171505Z 21011KT 31/21 A30 RMK A01 T03120206  RH  053%=      5-min Rain = 0
KDO1 171506Z 21009KT 31/21 A30 RMK A01 T03120206  RH  053%=      5-min Rain = 0
KDO1 171507Z 20011KT 31/21 A30 RMK A01 T03140206  RH  053%=      5-min Rain = 0
KDO1 171508Z 21011KT 32/21 A30 RMK A01 T03150206  RH  053%=      5-min Rain = 0
KDO1 171509Z 20014KT 32/21 A30 RMK A01 T03150205  RH  052%=      5-min Rain = 0
KDO1 171510Z 21011KT 31/21 A30 RMK A01 T03130205  RH  053%=      5-min Rain = 0
KDO1 171511Z 19012KT 31/21 A30 RMK A01 T03130205  RH  053%=      5-min Rain = 0
KDO1 171512Z 20014KT 31/21 A30 RMK A01 T03130205  RH  053%=      5-min Rain = 0
KDO1 171513Z 20013KT 31/21 A30 RMK A01 T03130205  RH  053%=      5-min Rain = 0
KDO1 171514Z 21013KT 31/21 A30 RMK A01 T03130205  RH  053%=      5-min Rain = 0
KDO1 171515Z 19012G17KT 31/20 A30 RMK A01 T03120204  RH  053%=      5-min Rain = 0
KDO1 171516Z 19010KT 31/21 A30 RMK A01 T03120206  RH  053%=      5-min Rain = 0
KDO1 171517Z 20013KT 31/21 A30 RMK A01 T03130206  RH  053%=      5-min Rain = 0
KDO1 171518Z 20012KT 31/21 A30 RMK A01 T03140206  RH  053%=      5-min Rain = 0
KDO1 171519Z 21009KT 31/21 A30 RMK A01 T03140206  RH  052%=      5-min Rain = 0
KDO1 171520Z 21010KT 32/21 A30 RMK A01 T03150207  RH  053%=      5-min Rain = 0
KDO1 171521Z 19011KT 32/21 A30 RMK A01 T03170208  RH  052%=      5-min Rain = 0
KDO1 171522Z 20011KT 32/21 A30 RMK A01 T03190206  RH  051%=      5-min Rain = 0
KDO1 171523Z 19012KT 32/21 A30 RMK A01 T03180206  RH  051%=      5-min Rain = 0
KDO1 171524Z 19011KT 32/21 A30 RMK A01 T03180207  RH  052%=      5-min Rain = 0
KDO1 171525Z 20014KT 32/21 A30 RMK A01 T03180206  RH  052%=      5-min Rain = 0
KDO1 171526Z 19010KT 32/21 A30 RMK A01 T03160205  RH  052%=      5-min Rain = 0
KDO1 171527Z 19013KT 32/21 A30 RMK A01 T03160205  RH  052%=      5-min Rain = 0
KDO1 171528Z 19011KT 32/21 A2999 RMK A01 T03160205  RH  052%=      5-min Rain = 0
KDO1 171529Z 20013KT 32/21 A2999 RMK A01 T03160206  RH  052%=      5-min Rain = 0
KDO1 171530Z 19012KT 32/21 A2999 RMK A01 T03180206  RH  052%=      5-min Rain = 0
KDO1 171531Z 20014KT 32/21 A2999 RMK A01 T03190208  RH  052%=      5-min Rain = 0
KDO1 171532Z 20012KT 32/21 A2999 RMK A01 T03200206  RH  051%=      5-min Rain = 0
KDO1 171533Z 21008KT 32/21 A2999 RMK A01 T03200208  RH  052%=      5-min Rain = 0
KDO1 171534Z 20010KT 32/21 A2999 RMK A01 T03210211  RH  052%=      5-min Rain = 0
KDO1 171535Z 22013KT 33/21 A2999 RMK A01 T03250207  RH  050%=      5-min Rain = 0
KDO1 171536Z 22012KT 32/20 A2999 RMK A01 T03240203  RH  049%=      5-min Rain = 0
KDO1 171537Z 22013KT 32/21 A2999 RMK A01 T03230206  RH  050%=      5-min Rain = 0
KDO1 171538Z 22014KT 32/21 A2999 RMK A01 T03240206  RH  050%=      5-min Rain = 0
KDO1 171539Z 21013KT 32/20 A2999 RMK A01 T03240203  RH  049%=      5-min Rain = 0
KDO1 171540Z 21014KT 32/20 A2999 RMK A01 T03220204  RH  050%=      5-min Rain = 0
KDO1 171541Z 20014KT 32/20 A2999 RMK A01 T03220204  RH  050%=      5-min Rain = 0
KDO1 171542Z 20015G20KT 32/20 A2999 RMK A01 T03220204  RH  050%=      5-min Rain = 0
KDO1 171543Z 21014KT 32/20 A2999 RMK A01 T03220203  RH  050%=      5-min Rain = 0
KDO1 171544Z 20013KT 32/20 A2999 RMK A01 T03220204  RH  050%=      5-min Rain = 0
KDO1 171545Z 20015KT 32/20 A2999 RMK A01 T03240204  RH  049%=      5-min Rain = 0
KDO1 171546Z 20015KT 32/20 A2999 RMK A01 T03240203  RH  049%=      5-min Rain = 0
KDO1 171547Z 20014KT 32/20 A2999 RMK A01 T03230203  RH  049%=      5-min Rain = 0
KDO1 171548Z 21010KT 32/20 A2999 RMK A01 T03230203  RH  049%=      5-min Rain = 0
KDO1 171549Z 22011KT 33/21 A2999 RMK A01 T03250205  RH  049%=      5-min Rain = 0
KDO1 171550Z 20015KT 33/21 A2999 RMK A01 T03270206  RH  049%=      5-min Rain = 0
KDO1 171551Z 21015G20KT 33/20 A2999 RMK A01 T03280203  RH  048%=      5-min Rain = 0
KDO1 171552Z 21014KT 33/20 A2999 RMK A01 T03280203  RH  048%=      5-min Rain = 0
KDO1 171553Z 21013KT 33/20 A2999 RMK A01 T03270204  RH  048%=      5-min Rain = 0
KDO1 171554Z 21014KT 33/20 A2999 RMK A01 T03270204  RH  048%=      5-min Rain = 0
KDO1 171555Z 20011KT 33/21 A2999 RMK A01 T03270205  RH  049%=      5-min Rain = 0
KDO1 171556Z 21014KT 33/21 A2999 RMK A01 T03270207  RH  049%=      5-min Rain = 0
KDO1 171557Z 22015KT 33/20 A2999 RMK A01 T03290204  RH  048%=      5-min Rain = 0
KDO1 171558Z 22014KT 33/20 A2999 RMK A01 T03290203  RH  047%=      5-min Rain = 0
KDO1 171559Z 22014KT 33/20 A2999 RMK A01 T03280203  RH  048%=      5-min Rain = 0
KDO1 171600Z 23011G16KT 33/20 A2999 RMK A01 T03280203  RH  048%=      5-min Rain = 0
KDO1 171601Z 22011KT 33/20 A2999 RMK A01 T03310204  RH  047%=      5-min Rain = 0
KDO1 171602Z 22010G15KT 33/21 A2999 RMK A01 T03320207  RH  048%=      5-min Rain = 0
KDO1 171603Z 21010KT 33/20 A2999 RMK A01 T03330204  RH  047%=      5-min Rain = 0
KDO1 171604Z 21013KT 33/21 A2999 RMK A01 T03330206  RH  047%=      5-min Rain = 0
KDO1 171605Z 22015KT 34/21 A2999 RMK A01 T03350205  RH  047%=      5-min Rain = 0
KDO1 171606Z 22013G18KT 34/20 A2999 RMK A01 T03350204  RH  046%=      5-min Rain = 0
KDO1 171607Z 22014KT 34/20 A2999 RMK A01 T03350202  RH  046%=      5-min Rain = 0
KDO1 171608Z 21010KT 33/20 A2999 RMK A01 T03320202  RH  046%=      5-min Rain = 0
KDO1 171609Z 21009KT 33/21 A2999 RMK A01 T03330205  RH  047%=      5-min Rain = 0
KDO1 171610Z 21013KT 34/21 A2999 RMK A01 T03370209  RH  047%=      5-min Rain = 0
KDO1 171611Z 19013KT 34/21 A2999 RMK A01 T03400206  RH  046%=      5-min Rain = 0
KDO1 171612Z 20012KT 34/21 A2999 RMK A01 T03390205  RH  045%=      5-min Rain = 0
KDO1 171613Z 21013KT 34/21 A2999 RMK A01 T03380206  RH  046%=      5-min Rain = 0
KDO1 171614Z 20015KT 34/20 A2999 RMK A01 T03380204  RH  046%=      5-min Rain = 0
KDO1 171615Z 20010G15KT 34/21 A2999 RMK A01 T03380205  RH  046%=      5-min Rain = 0
KDO1 171616Z 21009KT 34/21 A2999 RMK A01 T03370206  RH  046%=      5-min Rain = 0
KDO1 171617Z 22009KT 34/21 A2999 RMK A01 T03390207  RH  046%=      5-min Rain = 0
KDO1 171618Z 20012KT 34/21 A2999 RMK A01 T03390206  RH  046%=      5-min Rain = 0
KDO1 171619Z 21012KT 34/21 A2999 RMK A01 T03400205  RH  045%=      5-min Rain = 0
KDO1 171620Z 22010KT 34/21 A2999 RMK A01 T03410207  RH  045%=      5-min Rain = 0
KDO1 171621Z 21011KT 34/21 A2999 RMK A01 T03420205  RH  045%=      5-min Rain = 0
KDO1 171622Z 20014KT 34/20 A2999 RMK A01 T03400204  RH  045%=      5-min Rain = 0
KDO1 171623Z 20013KT 34/20 A2999 RMK A01 T03410202  RH  044%=      5-min Rain = 0
KDO1 171624Z 20013KT 34/20 A2999 RMK A01 T03410202  RH  044%=      5-min Rain = 0
KDO1 171625Z 21013KT 34/20 A2999 RMK A01 T03420202  RH  044%=      5-min Rain = 0
KDO1 171626Z 20011KT 34/20 A2999 RMK A01 T03420203  RH  044%=      5-min Rain = 0
KDO1 171627Z 20012KT 34/20 A2999 RMK A01 T03410203  RH  044%=      5-min Rain = 0
KDO1 171628Z 20010KT 34/20 A2999 RMK A01 T03410203  RH  045%=      5-min Rain = 0
KDO1 171629Z 20009G14KT 34/20 A2999 RMK A01 T03400204  RH  045%=      5-min Rain = 0
KDO1 171630Z 20013KT 34/21 A2999 RMK A01 T03420207  RH  045%=      5-min Rain = 0
KDO1 171631Z 21012KT 34/20 A2999 RMK A01 T03430204  RH  044%=      5-min Rain = 0
KDO1 171632Z 21012KT 34/21 A2999 RMK A01 T03410205  RH  045%=      5-min Rain = 0
KDO1 171633Z 20013KT 34/20 A2999 RMK A01 T03430204  RH  044%=      5-min Rain = 0
KDO1 171634Z 21012KT 34/20 A2999 RMK A01 T03430202  RH  044%=      5-min Rain = 0
KDO1 171635Z 21012KT 34/20 A2999 RMK A01 T03420202  RH  044%=      5-min Rain = 0
KDO1 171636Z 20012KT 34/20 A2999 RMK A01 T03420204  RH  044%=      5-min Rain = 0
KDO1 171637Z 19011KT 34/20 A2999 RMK A01 T03430203  RH  044%=      5-min Rain = 0
KDO1 171638Z 20008KT 34/21 A2999 RMK A01 T03420205  RH  045%=      5-min Rain = 0
KDO1 171639Z 20010KT 34/21 A2999 RMK A01 T03440205  RH  044%=      5-min Rain = 0
KDO1 171640Z 19009KT 34/21 A2999 RMK A01 T03440205  RH  044%=      5-min Rain = 0
KDO1 171641Z 20008G14KT 35/21 A2999 RMK A01 T03450210  RH  045%=      5-min Rain = 0
KDO1 171642Z 19012KT 35/21 A2999 RMK A01 T03480205  RH  043%=      5-min Rain = 0
KDO1 171643Z 19012KT 35/20 A2999 RMK A01 T03470203  RH  043%=      5-min Rain = 0
KDO1 171644Z 18010KT 34/21 A2999 RMK A01 T03440206  RH  045%=      5-min Rain = 0
KDO1 171645Z 17011G17KT 34/21 A2999 RMK A01 T03440207  RH  045%=      5-min Rain = 0
KDO1 171646Z 18015KT 35/21 A2999 RMK A01 T03450205  RH  044%=      5-min Rain = 0
KDO1 171647Z 18014KT 35/21 A2999 RMK A01 T03450205  RH  044%=      5-min Rain = 0
KDO1 171648Z 18011KT 34/20 A2999 RMK A01 T03430204  RH  044%=      5-min Rain = 0
KDO1 171649Z 19013KT 34/21 A2999 RMK A01 T03430205  RH  044%=      5-min Rain = 0
KDO1 171650Z 19011KT 34/21 A2999 RMK A01 T03430205  RH  045%=      5-min Rain = 0
KDO1 171651Z 20011KT 35/20 A2999 RMK A01 T03460203  RH  043%=      5-min Rain = 0
KDO1 171652Z 20012KT 35/20 A2999 RMK A01 T03480201  RH  042%=      5-min Rain = 0
KDO1 171653Z 19013G18KT 35/20 A2999 RMK A01 T03480200  RH  042%=      5-min Rain = 0
KDO1 171654Z 19013KT 35/20 A2999 RMK A01 T03470198  RH  042%=      5-min Rain = 0
KDO1 171655Z 19013KT 35/20 A2999 RMK A01 T03460198  RH  042%=      5-min Rain = 0
KDO1 171656Z 19015KT 35/20 A2999 RMK A01 T03480197  RH  041%=      5-min Rain = 0
KDO1 171657Z 18016KT 35/20 A2999 RMK A01 T03490198  RH  041%=      5-min Rain = 0
KDO1 171658Z 18014KT 35/20 A2999 RMK A01 T03490197  RH  041%=      5-min Rain = 0
KDO1 171659Z 18011KT 35/20 A2999 RMK A01 T03480198  RH  042%=      5-min Rain = 0
KDO1 171700Z 19011KT 35/20 A2999 RMK A01 T03470197  RH  041%=      5-min Rain = 0
KDO1 171701Z 18014G19KT 35/20 A2999 RMK A01 T03490199  RH  042%=      5-min Rain = 0
KDO1 171702Z 18014G19KT 35/20 A2999 RMK A01 T03500196  RH  040%=      5-min Rain = 0
KDO1 171703Z 17013KT 35/20 A2999 RMK A01 T03500197  RH  041%=      5-min Rain = 0
KDO1 171704Z 18016KT 35/20 A2999 RMK A01 T03510196  RH  040%=      5-min Rain = 0
KDO1 171705Z 18016KT 35/20 A2999 RMK A01 T03510196  RH  040%=      5-min Rain = 0
KDO1 171706Z 19015KT 35/20 A2999 RMK A01 T03500196  RH  041%=      5-min Rain = 0
KDO1 171707Z 18012KT 35/19 A2999 RMK A01 T03500194  RH  040%=      5-min Rain = 0
KDO1 171708Z 18012KT 35/20 A2999 RMK A01 T03520198  RH  041%=      5-min Rain = 0
KDO1 171709Z 19014KT 35/20 A2999 RMK A01 T03540199  RH  040%=      5-min Rain = 0
KDO1 171710Z 19011KT 35/20 A2999 RMK A01 T03540196  RH  040%=      5-min Rain = 0
KDO1 171711Z 19014KT 35/20 A2999 RMK A01 T03540197  RH  040%=      5-min Rain = 0
KDO1 171712Z 19013KT 36/20 A2999 RMK A01 T03550196  RH  039%=      5-min Rain = 0
KDO1 171713Z 18012KT 36/20 A2999 RMK A01 T03550198  RH  040%=      5-min Rain = 0
KDO1 171714Z 20011KT 36/20 A2999 RMK A01 T03560199  RH  040%=      5-min Rain = 0
KDO1 171715Z 19014KT 36/20 A2999 RMK A01 T03560197  RH  040%=      5-min Rain = 0
KDO1 171716Z 19011G16KT 35/20 A2999 RMK A01 T03530198  RH  040%=      5-min Rain = 0
KDO1 171717Z 20012KT 35/20 A2999 RMK A01 T03530199  RH  041%=      5-min Rain = 0
KDO1 171718Z 19011KT 35/20 A2999 RMK A01 T03530200  RH  041%=      5-min Rain = 0
KDO1 171719Z 19011KT 35/20 A2999 RMK A01 T03520202  RH  041%=      5-min Rain = 0
KDO1 171720Z 18011KT 35/20 A2999 RMK A01 T03520200  RH  041%=      5-min Rain = 0
KDO1 171721Z 19014G21KT 35/20 A2999 RMK A01 T03530197  RH  040%=      5-min Rain = 0
KDO1 171722Z 19013KT 35/19 A2999 RMK A01 T03540194  RH  039%=      5-min Rain = 0
KDO1 171723Z 19013KT 35/20 A2999 RMK A01 T03530195  RH  040%=      5-min Rain = 0
KDO1 171724Z 18014KT 35/20 A2999 RMK A01 T03520197  RH  040%=      5-min Rain = 0
KDO1 171725Z 18016KT 35/19 A2999 RMK A01 T03530193  RH  039%=      5-min Rain = 0
KDO1 171726Z 19016KT 35/19 A2999 RMK A01 T03540191  RH  038%=      5-min Rain = 0
KDO1 171727Z 19015KT 35/19 A2999 RMK A01 T03530190  RH  038%=      5-min Rain = 0
KDO1 171728Z 19012KT 35/19 A2999 RMK A01 T03520191  RH  039%=      5-min Rain = 0
KDO1 171729Z 18011KT 35/19 A2999 RMK A01 T03510191  RH  039%=      5-min Rain = 0
KDO1 171730Z 18015G20KT 35/19 A2999 RMK A01 T03530194  RH  039%=      5-min Rain = 0
KDO1 171731Z 17013G18KT 36/19 A2999 RMK A01 T03550191  RH  038%=      5-min Rain = 0
KDO1 171732Z 19017KT 36/19 A2999 RMK A01 T03550191  RH  038%=      5-min Rain = 0
KDO1 171733Z 18014KT 36/19 A2999 RMK A01 T03560188  RH  037%=      5-min Rain = 0
KDO1 171734Z 18016KT 36/19 A2999 RMK A01 T03570191  RH  038%=      5-min Rain = 0
KDO1 171735Z 18013KT 36/19 A2999 RMK A01 T03570192  RH  038%=      5-min Rain = 0
KDO1 171736Z 19012KT 36/19 A2999 RMK A01 T03580193  RH  038%=      5-min Rain = 0
KDO1 171737Z 21015KT 36/20 A2999 RMK A01 T03600195  RH  038%=      5-min Rain = 0
KDO1 171738Z 21013KT 36/20 A2999 RMK A01 T03600196  RH  038%=      5-min Rain = 0
KDO1 171739Z 19013KT 36/20 A2999 RMK A01 T03600197  RH  038%=      5-min Rain = 0
KDO1 171740Z 18020KT 36/19 A2999 RMK A01 T03630194  RH  037%=      5-min Rain = 0
KDO1 171741Z 19017G23KT 36/19 A2999 RMK A01 T03630190  RH  036%=      5-min Rain = 0
KDO1 171742Z 19014KT 36/19 A2999 RMK A01 T03620193  RH  037%=      5-min Rain = 0
KDO1 171743Z 19014G20KT 36/20 A2999 RMK A01 T03630196  RH  038%=      5-min Rain = 0
KDO1 171744Z 18014KT 37/20 A2999 RMK A01 T03650196  RH  037%=      5-min Rain = 0
KDO1 171745Z 17016KT 37/19 A2998 RMK A01 T03650193  RH  037%=      5-min Rain = 0
KDO1 171746Z 17016KT 36/19 A2998 RMK A01 T03610190  RH  037%=      5-min Rain = 0
KDO1 171747Z 17014G20KT 36/19 A2998 RMK A01 T03580190  RH  037%=      5-min Rain = 0
KDO1 171748Z 17016KT 36/19 A2998 RMK A01 T03580192  RH  038%=      5-min Rain = 0
KDO1 171749Z 18015KT 36/19 A2998 RMK A01 T03590193  RH  038%=      5-min Rain = 0
KDO1 171750Z 19016KT 36/19 A2998 RMK A01 T03600192  RH  037%=      5-min Rain = 0
KDO1 171751Z 20014KT 36/19 A2998 RMK A01 T03610190  RH  037%=      5-min Rain = 0
KDO1 171752Z 19012KT 36/19 A2998 RMK A01 T03620193  RH  037%=      5-min Rain = 0
KDO1 171753Z 18012G17KT 37/20 A2998 RMK A01 T03660198  RH  037%=      5-min Rain = 0
KDO1 171754Z 17011KT 37/20 A2998 RMK A01 T03690197  RH  037%=      5-min Rain = 0
KDO1 171755Z 20012KT 37/19 A2998 RMK A01 T03690194  RH  036%=      5-min Rain = 0
KDO1 171756Z 19014KT 37/19 A2998 RMK A01 T03680190  RH  036%=      5-min Rain = 0
KDO1 171757Z 18013KT 36/19 A2998 RMK A01 T03640192  RH  036%=      5-min Rain = 0
KDO1 171758Z 20011G17KT 37/19 A2998 RMK A01 T03650193  RH  037%=      5-min Rain = 0
KDO1 171759Z 19014KT 37/20 A2998 RMK A01 T03680195  RH  036%=      5-min Rain = 0
KDO1 171800Z 20015KT 37/20 A2998 RMK A01 T03670195  RH  037%=      5-min Rain = 0
KDO1 171801Z 20017G22KT 37/20 A2998 RMK A01 T03660196  RH  037%=      5-min Rain = 0
KDO1 171802Z 20016KT 37/19 A2998 RMK A01 T03670192  RH  036%=      5-min Rain = 0
KDO1 171803Z 18014G19KT 37/19 A2998 RMK A01 T03670193  RH  036%=      5-min Rain = 0
KDO1 171804Z 19012KT 37/19 A2998 RMK A01 T03660191  RH  036%=      5-min Rain = 0
KDO1 171805Z 19011KT 37/20 A2998 RMK A01 T03650195  RH  037%=      5-min Rain = 0
KDO1 171806Z 18013G20KT 37/19 A2998 RMK A01 T03660193  RH  037%=      5-min Rain = 0
KDO1 171807Z 17013G18KT 37/19 A2998 RMK A01 T03650193  RH  037%=      5-min Rain = 0
KDO1 171808Z 18013KT 36/19 A2998 RMK A01 T03630194  RH  037%=      5-min Rain = 0
KDO1 171809Z 16015KT 36/20 A2998 RMK A01 T03610196  RH  038%=      5-min Rain = 0
KDO1 171810Z 16013KT 36/19 A2998 RMK A01 T03610194  RH  038%=      5-min Rain = 0
KDO1 171811Z 16012KT 36/19 A2998 RMK A01 T03620194  RH  037%=      5-min Rain = 0
KDO1 171812Z 17009KT 36/19 A2998 RMK A01 T03620193  RH  037%=      5-min Rain = 0
KDO1 171813Z 18010G15KT 36/20 A2998 RMK A01 T03630197  RH  038%=      5-min Rain = 0
KDO1 171814Z 18014KT 37/20 A2998 RMK A01 T03650195  RH  037%=      5-min Rain = 0
KDO1 171815Z 19014KT 37/20 A2998 RMK A01 T03650195  RH  037%=      5-min Rain = 0
KDO1 171816Z 19012KT 37/20 A2998 RMK A01 T03660196  RH  037%=      5-min Rain = 0
KDO1 171817Z 19014KT 37/20 A2998 RMK A01 T03670196  RH  037%=      5-min Rain = 0
KDO1 171818Z 18012KT 37/19 A2998 RMK A01 T03670193  RH  036%=      5-min Rain = 0
KDO1 171819Z 18009KT 37/20 A2998 RMK A01 T03680196  RH  037%=      5-min Rain = 0
KDO1 171820Z 19010G15KT 37/20 A2998 RMK A01 T03710196  RH  036%=      5-min Rain = 0
KDO1 171821Z 19013KT 37/19 A2998 RMK A01 T03710193  RH  035%=      5-min Rain = 0
KDO1 171822Z 20015G20KT 37/19 A2998 RMK A01 T03690193  RH  036%=      5-min Rain = 0
KDO1 171823Z 20015G20KT 37/19 A2998 RMK A01 T03690190  RH  035%=      5-min Rain = 0
KDO1 171824Z 18012KT 37/19 A2998 RMK A01 T03690189  RH  035%=      5-min Rain = 0
KDO1 171825Z 17009KT 37/19 A2998 RMK A01 T03680190  RH  035%=      5-min Rain = 0
KDO1 171826Z 19010KT 37/19 A2997 RMK A01 T03710191  RH  035%=      5-min Rain = 0
KDO1 171827Z 20010KT 37/19 A2997 RMK A01 T03720189  RH  034%=      5-min Rain = 0
KDO1 171828Z 18012KT 37/18 A2998 RMK A01 T03710184  RH  034%=      5-min Rain = 0
KDO1 171829Z 17012KT 37/18 A2997 RMK A01 T03680183  RH  034%=      5-min Rain = 0
KDO1 171830Z 18014G19KT 37/18 A2997 RMK A01 T03670183  RH  034%=      5-min Rain = 0
KDO1 171831Z 17013G18KT 37/18 A2997 RMK A01 T03670184  RH  034%=      5-min Rain = 0
KDO1 171832Z 16019KT 37/18 A2997 RMK A01 T03700183  RH  033%=      5-min Rain = 0
KDO1 171833Z 17018KT 37/18 A2997 RMK A01 T03710182  RH  033%=      5-min Rain = 0
KDO1 171834Z 17019KT 37/18 A2997 RMK A01 T03690181  RH  033%=      5-min Rain = 0
KDO1 171835Z 18019KT 37/18 A2997 RMK A01 T03680182  RH  033%=      5-min Rain = 0
KDO1 171836Z 19017KT 37/18 A2997 RMK A01 T03680182  RH  034%=      5-min Rain = 0
KDO1 171837Z 18016KT 37/18 A2997 RMK A01 T03690184  RH  034%=      5-min Rain = 0
KDO1 171838Z 17013KT 37/18 A2997 RMK A01 T03690184  RH  034%=      5-min Rain = 0
KDO1 171839Z 20012KT 37/19 A2997 RMK A01 T03690187  RH  034%=      5-min Rain = 0
KDO1 171840Z 18010KT 37/19 A2997 RMK A01 T03730188  RH  034%=      5-min Rain = 0
KDO1 171841Z 18009KT 38/19 A2997 RMK A01 T03780191  RH  034%=      5-min Rain = 0
KDO1 171842Z 20013KT 38/19 A2997 RMK A01 T03800187  RH  033%=      5-min Rain = 0
KDO1 171843Z 19010KT 38/18 A2997 RMK A01 T03800184  RH  032%=      5-min Rain = 0
KDO1 171844Z 19012KT 38/19 A2997 RMK A01 T03820188  RH  032%=      5-min Rain = 0
KDO1 171845Z 17012KT 38/18 A2997 RMK A01 T03830184  RH  031%=      5-min Rain = 0
KDO1 171846Z 19015KT 38/18 A2997 RMK A01 T03830182  RH  031%=      5-min Rain = 0
KDO1 171847Z 18016G22KT 38/18 A2997 RMK A01 T03810182  RH  031%=      5-min Rain = 0
KDO1 171848Z 19013G18KT 38/19 A2997 RMK A01 T03810186  RH  032%=      5-min Rain = 0
KDO1 171849Z 19018G23KT 38/18 A2997 RMK A01 T03820183  RH  031%=      5-min Rain = 0
KDO1 171850Z 19014G19KT 38/18 A2997 RMK A01 T03790181  RH  031%=      5-min Rain = 0
KDO1 171851Z 20016KT 38/18 A2997 RMK A01 T03780180  RH  031%=      5-min Rain = 0
KDO1 171852Z 18014KT 37/18 A2997 RMK A01 T03740179  RH  032%=      5-min Rain = 0
KDO1 171853Z 17013KT 37/18 A2997 RMK A01 T03730180  RH  032%=      5-min Rain = 0
KDO1 171854Z 17013KT 37/18 A2997 RMK A01 T03730181  RH  033%=      5-min Rain = 0
KDO1 171855Z 18013KT 37/18 A2997 RMK A01 T03730182  RH  033%=      5-min Rain = 0
KDO1 171856Z 18012KT 37/18 A2997 RMK A01 T03730183  RH  033%=      5-min Rain = 0
KDO1 171857Z 20013KT 38/18 A2996 RMK A01 T03750184  RH  033%=      5-min Rain = 0
KDO1 171858Z 18013G19KT 38/19 A2996 RMK A01 T03760186  RH  033%=      5-min Rain = 0
KDO1 171859Z 16013G18KT 38/19 A2996 RMK A01 T03760187  RH  033%=      5-min Rain = 0
KDO1 171900Z 18018KT 38/19 A2996 RMK A01 T03790186  RH  032%=      5-min Rain = 0
KDO1 171901Z 18018KT 38/18 A2996 RMK A01 T03810182  RH  031%=      5-min Rain = 0
KDO1 171902Z 18012G17KT 38/18 A2996 RMK A01 T03760180  RH  032%=      5-min Rain = 0
KDO1 171903Z 19011KT 37/18 A2996 RMK A01 T03740184  RH  033%=      5-min Rain = 0
KDO1 171904Z 17014KT 38/18 A2996 RMK A01 T03760183  RH  032%=      5-min Rain = 0
KDO1 171905Z 17010KT 38/18 A2996 RMK A01 T03750184  RH  033%=      5-min Rain = 0
KDO1 171906Z 18015G21KT 38/18 A2996 RMK A01 T03760184  RH  033%=      5-min Rain = 0
KDO1 171907Z 18015KT 38/18 A2996 RMK A01 T03780182  RH  032%=      5-min Rain = 0
KDO1 171908Z 18017G24KT 38/18 A2996 RMK A01 T03770182  RH  032%=      5-min Rain = 0
KDO1 171909Z 18019KT 38/18 A2996 RMK A01 T03760179  RH  032%=      5-min Rain = 0
KDO1 171910Z 19014KT 37/18 A2996 RMK A01 T03740179  RH  032%=      5-min Rain = 0
KDO1 171911Z 19013KT 37/18 A2996 RMK A01 T03730179  RH  032%=      5-min Rain = 0
KDO1 171912Z 18015KT 37/18 A2996 RMK A01 T03710181  RH  033%=      5-min Rain = 0
KDO1 171913Z 17012KT 37/18 A2996 RMK A01 T03730181  RH  032%=      5-min Rain = 0
KDO1 171914Z 17015G23KT 38/18 A2996 RMK A01 T03760179  RH  032%=      5-min Rain = 0
KDO1 171915Z 19018KT 38/18 A2996 RMK A01 T03770177  RH  031%=      5-min Rain = 0
KDO1 171916Z 19018KT 38/18 A2996 RMK A01 T03770175  RH  031%=      5-min Rain = 0
KDO1 171917Z 19018KT 38/18 A2996 RMK A01 T03750175  RH  031%=      5-min Rain = 0
KDO1 171918Z 19013KT 38/18 A2996 RMK A01 T03750175  RH  031%=      5-min Rain = 0
KDO1 171919Z 17014G19KT 38/18 A2996 RMK A01 T03750176  RH  031%=      5-min Rain = 0
KDO1 171920Z 17019G24KT 38/17 A2996 RMK A01 T03760173  RH  030%=      5-min Rain = 0
KDO1 171921Z 17012G18KT 38/17 A2996 RMK A01 T03750174  RH  031%=      5-min Rain = 0
KDO1 171922Z 16014KT 38/17 A2996 RMK A01 T03750173  RH  031%=      5-min Rain = 0
KDO1 171923Z 16014KT 37/18 A2996 RMK A01 T03730175  RH  031%=      5-min Rain = 0
KDO1 171924Z 16014G20KT 37/18 A2996 RMK A01 T03730175  RH  031%=      5-min Rain = 0
KDO1 171925Z 16010KT 37/18 A2996 RMK A01 T03740175  RH  031%=      5-min Rain = 0
KDO1 171926Z 15011KT 38/18 A2995 RMK A01 T03760176  RH  031%=      5-min Rain = 0
KDO1 171927Z 18014KT 38/18 A2996 RMK A01 T03780175  RH  031%=      5-min Rain = 0
KDO1 171928Z 18012G17KT 38/17 A2995 RMK A01 T03780174  RH  030%=      5-min Rain = 0
KDO1 171929Z 19017G23KT 38/18 A2995 RMK A01 T03800177  RH  031%=      5-min Rain = 0
KDO1 171930Z 20017KT 38/18 A2996 RMK A01 T03820175  RH  030%=      5-min Rain = 0
KDO1 171931Z 19013KT 38/18 A2996 RMK A01 T03790175  RH  030%=      5-min Rain = 0
KDO1 171932Z 21017G24KT 38/17 A2996 RMK A01 T03780174  RH  030%=      5-min Rain = 0
KDO1 171933Z 21012KT 38/17 A2996 RMK A01 T03780173  RH  030%=      5-min Rain = 0
KDO1 171934Z 22010KT 38/17 A2995 RMK A01 T03760173  RH  030%=      5-min Rain = 0
KDO1 171935Z 22012G18KT 38/17 A2995 RMK A01 T03770174  RH  030%=      5-min Rain = 0
KDO1 171936Z 20010KT 38/18 A2995 RMK A01 T03770176  RH  031%=      5-min Rain = 0
KDO1 171937Z 16012KT 38/18 A2995 RMK A01 T03800180  RH  031%=      5-min Rain = 0
KDO1 171938Z 18011KT 38/18 A2995 RMK A01 T03830180  RH  031%=      5-min Rain = 0
KDO1 171939Z 19011KT 38/18 A2995 RMK A01 T03840182  RH  031%=      5-min Rain = 0
KDO1 171940Z 19015G20KT 38/18 A2995 RMK A01 T03840180  RH  030%=      5-min Rain = 0
KDO1 171941Z 20016KT 38/18 A2995 RMK A01 T03830178  RH  030%=      5-min Rain = 0
KDO1 171942Z 19016KT 38/17 A2995 RMK A01 T03820174  RH  029%=      5-min Rain = 0
KDO1 171943Z 19013KT 38/17 A2995 RMK A01 T03790172  RH  030%=      5-min Rain = 0
KDO1 171944Z 19012KT 38/17 A2995 RMK A01 T03760170  RH  030%=      5-min Rain = 0
KDO1 171945Z 18012G17KT 38/17 A2995 RMK A01 T03760173  RH  030%=      5-min Rain = 0
KDO1 171946Z 17016KT 38/17 A2995 RMK A01 T03760170  RH  030%=      5-min Rain = 0
KDO1 171947Z 17016G21KT 38/17 A2995 RMK A01 T03760166  RH  029%=      5-min Rain = 0
KDO1 171948Z 17019KT 38/16 A2995 RMK A01 T03750164  RH  029%=      5-min Rain = 0
KDO1 171949Z 18014KT 37/16 A2995 RMK A01 T03740164  RH  029%=      5-min Rain = 0
KDO1 171950Z 20017G22KT 38/17 A2995 RMK A01 T03760167  RH  029%=      5-min Rain = 0
KDO1 171951Z 20015KT 38/16 A2995 RMK A01 T03790164  RH  028%=      5-min Rain = 0
KDO1 171952Z 21011KT 38/17 A2995 RMK A01 T03790168  RH  029%=      5-min Rain = 0
KDO1 171953Z 19014G20KT 38/17 A2995 RMK A01 T03770170  RH  030%=      5-min Rain = 0
KDO1 171954Z 18014KT 38/17 A2995 RMK A01 T03770169  RH  030%=      5-min Rain = 0
KDO1 171955Z 18015KT 38/17 A2995 RMK A01 T03780168  RH  029%=      5-min Rain = 0
KDO1 171956Z 19014KT 38/17 A2995 RMK A01 T03790168  RH  029%=      5-min Rain = 0
KDO1 171957Z 20018G24KT 38/17 A2995 RMK A01 T03820173  RH  029%=      5-min Rain = 0
KDO1 171958Z 19018KT 38/17 A2995 RMK A01 T03830170  RH  029%=      5-min Rain = 0
KDO1 171959Z 18015KT 38/17 A2995 RMK A01 T03820168  RH  028%=      5-min Rain = 0
KDO1 172000Z 17014KT 38/17 A2995 RMK A01 T03810170  RH  029%=      5-min Rain = 0
KDO1 172001Z 17012KT 38/17 A2995 RMK A01 T03810170  RH  029%=      5-min Rain = 0
KDO1 172002Z 19009KT 38/17 A2995 RMK A01 T03800174  RH  030%=      5-min Rain = 0
KDO1 172003Z 19015KT 38/18 A2994 RMK A01 T03840176  RH  030%=      5-min Rain = 0
KDO1 172004Z 19015KT 38/17 A2994 RMK A01 T03830172  RH  029%=      5-min Rain = 0
KDO1 172005Z 19015KT 38/17 A2994 RMK A01 T03820171  RH  029%=      5-min Rain = 0
KDO1 172006Z 17017KT 38/17 A2994 RMK A01 T03820172  RH  029%=      5-min Rain = 0
KDO1 172007Z 18013G18KT 38/17 A2994 RMK A01 T03820172  RH  029%=      5-min Rain = 0
KDO1 172008Z 20011KT 38/18 A2994 RMK A01 T03830175  RH  030%=      5-min Rain = 0
KDO1 172009Z 19010KT 39/18 A2994 RMK A01 T03860175  RH  029%=      5-min Rain = 0
KDO1 172010Z 21012KT 39/17 A2994 RMK A01 T03870173  RH  029%=      5-min Rain = 0
KDO1 172011Z 20012KT 39/17 A2994 RMK A01 T03850172  RH  029%=      5-min Rain = 0
KDO1 172012Z 19014KT 39/17 A2994 RMK A01 T03860174  RH  029%=      5-min Rain = 0
KDO1 172013Z 19017G23KT 39/17 A2994 RMK A01 T03870168  RH  028%=      5-min Rain = 0
KDO1 172014Z 18017G22KT 39/17 A2994 RMK A01 T03850166  RH  028%=      5-min Rain = 0
KDO1 172015Z 18016G23KT 38/17 A2994 RMK A01 T03820165  RH  028%=      5-min Rain = 0
KDO1 172016Z 18017KT 38/17 A2994 RMK A01 T03820165  RH  028%=      5-min Rain = 0
KDO1 172017Z 18017KT 38/16 A2994 RMK A01 T03830161  RH  027%=      5-min Rain = 0
KDO1 172018Z 17017KT 38/16 A2994 RMK A01 T03830162  RH  027%=      5-min Rain = 0
KDO1 172019Z 19017KT 38/16 A2994 RMK A01 T03830162  RH  027%=      5-min Rain = 0
KDO1 172020Z 20017KT 38/17 A2994 RMK A01 T03830167  RH  028%=      5-min Rain = 0
KDO1 172021Z 19016KT 38/17 A2994 RMK A01 T03830169  RH  029%=      5-min Rain = 0
KDO1 172022Z 20014KT 38/17 A2994 RMK A01 T03820168  RH  028%=      5-min Rain = 0
KDO1 172023Z 20015KT 38/17 A2994 RMK A01 T03810169  RH  029%=      5-min Rain = 0
KDO1 172024Z 18014KT 38/17 A2994 RMK A01 T03820174  RH  030%=      5-min Rain = 0
KDO1 172025Z 17014G21KT 38/17 A2994 RMK A01 T03830173  RH  029%=      5-min Rain = 0
KDO1 172026Z 18018KT 38/17 A2994 RMK A01 T03840171  RH  029%=      5-min Rain = 0
KDO1 172027Z 18015KT 39/17 A2994 RMK A01 T03850169  RH  028%=      5-min Rain = 0
KDO1 172028Z 18013KT 38/17 A2994 RMK A01 T03830167  RH  028%=      5-min Rain = 0
KDO1 172029Z 19011KT 38/17 A2994 RMK A01 T03810167  RH  028%=      5-min Rain = 0
KDO1 172030Z 20012KT 38/17 A2994 RMK A01 T03830171  RH  029%=      5-min Rain = 0
KDO1 172031Z 19011KT 39/18 A2993 RMK A01 T03850175  RH  029%=      5-min Rain = 0
KDO1 172032Z 16015G21KT 39/18 A2994 RMK A01 T03880176  RH  029%=      5-min Rain = 0
KDO1 172033Z 17010G15KT 39/17 A2994 RMK A01 T03880170  RH  028%=      5-min Rain = 0
KDO1 172034Z 16009G15KT 39/17 A2994 RMK A01 T03870172  RH  029%=      5-min Rain = 0
KDO1 172035Z 17013KT 39/17 A2993 RMK A01 T03880173  RH  028%=      5-min Rain = 0
KDO1 172036Z 16016KT 39/17 A2993 RMK A01 T03880171  RH  028%=      5-min Rain = 0
KDO1 172037Z 20014G21KT 38/17 A2993 RMK A01 T03840173  RH  029%=      5-min Rain = 0
KDO1 172038Z 19016KT 38/17 A2993 RMK A01 T03840174  RH  029%=      5-min Rain = 0
KDO1 172039Z 19014KT 38/18 A2993 RMK A01 T03830175  RH  030%=      5-min Rain = 0
KDO1 172040Z 18012KT 38/18 A2993 RMK A01 T03810177  RH  030%=      5-min Rain = 0
KDO1 172041Z 18011KT 38/18 A2993 RMK A01 T03810179  RH  031%=      5-min Rain = 0
KDO1 172042Z 17014KT 38/18 A2993 RMK A01 T03840179  RH  030%=      5-min Rain = 0
KDO1 172043Z 16013G18KT 39/18 A2993 RMK A01 T03860178  RH  030%=      5-min Rain = 0
KDO1 172044Z 15013G19KT 39/18 A2993 RMK A01 T03850178  RH  030%=      5-min Rain = 0
KDO1 172045Z 17017G22KT 38/18 A2993 RMK A01 T03840177  RH  030%=      5-min Rain = 0
KDO1 172046Z 19019G25KT 39/18 A2993 RMK A01 T03850176  RH  030%=      5-min Rain = 0
KDO1 172047Z 19016KT 38/18 A2993 RMK A01 T03840178  RH  030%=      5-min Rain = 0
KDO1 172048Z 18010G17KT 39/18 A2993 RMK A01 T03850179  RH  030%=      5-min Rain = 0
KDO1 172049Z 18011KT 39/18 A2993 RMK A01 T03890182  RH  030%=      5-min Rain = 0
KDO1 172050Z 18014KT 39/18 A2993 RMK A01 T03910179  RH  029%=      5-min Rain = 0
KDO1 172051Z 18012KT 39/18 A2993 RMK A01 T03880176  RH  029%=      5-min Rain = 0
KDO1 172052Z 18012KT 39/18 A2993 RMK A01 T03850178  RH  030%=      5-min Rain = 0
KDO1 172053Z 18009KT 38/18 A2993 RMK A01 T03840179  RH  030%=      5-min Rain = 0
KDO1 172054Z 17011KT 39/18 A2993 RMK A01 T03850180  RH  030%=      5-min Rain = 0
KDO1 172055Z 17014G21KT 39/18 A2993 RMK A01 T03860180  RH  030%=      5-min Rain = 0
KDO1 172056Z 16016G22KT 39/18 A2993 RMK A01 T03860181  RH  030%=      5-min Rain = 0
KDO1 172057Z 17020KT 39/18 A2993 RMK A01 T03850180  RH  030%=      5-min Rain = 0
KDO1 172058Z 18017KT 38/18 A2993 RMK A01 T03830180  RH  031%=      5-min Rain = 0
KDO1 172059Z 16018KT 38/18 A2993 RMK A01 T03810179  RH  031%=      5-min Rain = 0
KDO1 172100Z 17010KT 38/18 A2993 RMK A01 T03780179  RH  031%=      5-min Rain = 0
KDO1 172101Z 16013KT 38/18 A2993 RMK A01 T03790181  RH  032%=      5-min Rain = 0
KDO1 172102Z 17016KT 38/18 A2992 RMK A01 T03820182  RH  031%=      5-min Rain = 0
KDO1 172103Z 17012KT 38/18 A2992 RMK A01 T03830179  RH  030%=      5-min Rain = 0
KDO1 172104Z 17015KT 38/18 A2992 RMK A01 T03830179  RH  030%=      5-min Rain = 0
KDO1 172105Z 17015KT 38/18 A2992 RMK A01 T03810178  RH  030%=      5-min Rain = 0
KDO1 172106Z 19012G17KT 38/18 A2992 RMK A01 T03790179  RH  031%=      5-min Rain = 0
KDO1 172107Z 18015KT 38/18 A2992 RMK A01 T03800180  RH  031%=      5-min Rain = 0
KDO1 172108Z 18015KT 38/18 A2992 RMK A01 T03820180  RH  031%=      5-min Rain = 0
KDO1 172109Z 18015KT 38/18 A2992 RMK A01 T03820181  RH  031%=      5-min Rain = 0
KDO1 172110Z 17014G19KT 38/18 A2992 RMK A01 T03820184  RH  031%=      5-min Rain = 0
KDO1 172111Z 17014G19KT 38/18 A2992 RMK A01 T03840180  RH  031%=      5-min Rain = 0
KDO1 172112Z 17017G22KT 38/18 A2992 RMK A01 T03820181  RH  031%=      5-min Rain = 0
KDO1 172113Z 17019KT 38/18 A2992 RMK A01 T03810178  RH  031%=      5-min Rain = 0
KDO1 172114Z 16015KT 38/18 A2992 RMK A01 T03780176  RH  031%=      5-min Rain = 0
KDO1 172115Z 15015KT 38/18 A2992 RMK A01 T03760177  RH  031%=      5-min Rain = 0
KDO1 172116Z 16017G27KT 38/18 A2992 RMK A01 T03770180  RH  032%=      5-min Rain = 0
KDO1 172117Z 16020G25KT 38/18 A2992 RMK A01 T03790177  RH  031%=      5-min Rain = 0
KDO1 172118Z 19020G25KT 38/18 A2992 RMK A01 T03790177  RH  031%=      5-min Rain = 0
KDO1 172119Z 18014KT 38/18 A2992 RMK A01 T03790178  RH  031%=      5-min Rain = 0
KDO1 172120Z 18016KT 38/18 A2992 RMK A01 T03800179  RH  031%=      5-min Rain = 0
KDO1 172121Z 17018G28KT 38/18 A2992 RMK A01 T03800180  RH  031%=      5-min Rain = 0
KDO1 172122Z 18014KT 38/18 A2992 RMK A01 T03800179  RH  031%=      5-min Rain = 0
KDO1 172123Z 18014KT 38/18 A2992 RMK A01 T03820181  RH  031%=      5-min Rain = 0
KDO1 172124Z 19017KT 38/18 A2992 RMK A01 T03820180  RH  031%=      5-min Rain = 0
KDO1 172125Z 18020G25KT 38/18 A2992 RMK A01 T03820179  RH  031%=      5-min Rain = 0
KDO1 172126Z 18017G22KT 38/18 A2992 RMK A01 T03790176  RH  031%=      5-min Rain = 0
KDO1 172127Z 18013KT 38/18 A2992 RMK A01 T03780179  RH  031%=      5-min Rain = 0
KDO1 172128Z 17014G19KT 38/18 A2992 RMK A01 T03810181  RH  031%=      5-min Rain = 0
KDO1 172129Z 17017KT 38/18 A2992 RMK A01 T03830178  RH  030%=      5-min Rain = 0
KDO1 172130Z 17016KT 38/18 A2992 RMK A01 T03810178  RH  031%=      5-min Rain = 0
KDO1 172131Z 18017KT 38/18 A2992 RMK A01 T03800178  RH  031%=      5-min Rain = 0
KDO1 172132Z 17018G24KT 38/18 A2992 RMK A01 T03800175  RH  030%=      5-min Rain = 0
KDO1 172133Z 17015G20KT 38/17 A2992 RMK A01 T03800174  RH  030%=      5-min Rain = 0
KDO1 172134Z 17018KT 38/17 A2992 RMK A01 T03810171  RH  029%=      5-min Rain = 0
KDO1 172135Z 17018G23KT 38/17 A2992 RMK A01 T03800170  RH  029%=      5-min Rain = 0
KDO1 172136Z 19015KT 38/17 A2992 RMK A01 T03790172  RH  030%=      5-min Rain = 0
KDO1 172137Z 19015KT 38/17 A2992 RMK A01 T03790173  RH  030%=      5-min Rain = 0
KDO1 172138Z 18013G19KT 38/18 A2992 RMK A01 T03810179  RH  031%=      5-min Rain = 0
KDO1 172139Z 19015G22KT 38/18 A2992 RMK A01 T03830180  RH  030%=      5-min Rain = 0
KDO1 172140Z 18015KT 38/18 A2992 RMK A01 T03820179  RH  031%=      5-min Rain = 0
KDO1 172141Z 16015G22KT 38/18 A2992 RMK A01 T03790178  RH  031%=      5-min Rain = 0
KDO1 172142Z 17014G20KT 38/18 A2992 RMK A01 T03790176  RH  030%=      5-min Rain = 0
KDO1 172143Z 18015KT 38/18 A2992 RMK A01 T03780176  RH  031%=      5-min Rain = 0
KDO1 172144Z 18016KT 38/18 A2992 RMK A01 T03780177  RH  031%=      5-min Rain = 0
KDO1 172145Z 16016KT 38/18 A2992 RMK A01 T03790180  RH  031%=      5-min Rain = 0
KDO1 172146Z 17014G19KT 38/18 A2991 RMK A01 T03790179  RH  031%=      5-min Rain = 0
KDO1 172147Z 17014KT 38/18 A2991 RMK A01 T03790180  RH  031%=      5-min Rain = 0
KDO1 172148Z 16017KT 38/18 A2991 RMK A01 T03800180  RH  031%=      5-min Rain = 0
KDO1 172149Z 16016G21KT 38/18 A2991 RMK A01 T03790179  RH  031%=      5-min Rain = 0
KDO1 172150Z 17015G20KT 38/18 A2991 RMK A01 T03780180  RH  031%=      5-min Rain = 0
KDO1 172151Z 17017G23KT 38/18 A2991 RMK A01 T03790178  RH  031%=      5-min Rain = 0
KDO1 172152Z 18012G17KT 38/18 A2991 RMK A01 T03790178  RH  031%=      5-min Rain = 0
KDO1 172153Z 18016KT 38/18 A2991 RMK A01 T03800181  RH  031%=      5-min Rain = 0
KDO1 172154Z 16011G16KT 38/18 A2991 RMK A01 T03800183  RH  032%=      5-min Rain = 0
KDO1 172155Z 15016KT 38/18 A2991 RMK A01 T03810182  RH  031%=      5-min Rain = 0
KDO1 172156Z 15017KT 38/18 A2991 RMK A01 T03820180  RH  031%=      5-min Rain = 0
KDO1 172157Z 15019KT 38/18 A2991 RMK A01 T03810179  RH  031%=      5-min Rain = 0
KDO1 172158Z 18012G17KT 38/18 A2991 RMK A01 T03790178  RH  031%=      5-min Rain = 0
KDO1 172159Z 18010KT 38/18 A2991 RMK A01 T03800179  RH  031%=      5-min Rain = 0
KDO1 172200Z 18014KT 38/18 A2991 RMK A01 T03810179  RH  031%=      5-min Rain = 0
KDO1 172201Z 19012KT 38/18 A2991 RMK A01 T03810181  RH  031%=      5-min Rain = 0
KDO1 172202Z 17013G18KT 38/18 A2991 RMK A01 T03820182  RH  031%=      5-min Rain = 0
KDO1 172203Z 18015KT 39/18 A2991 RMK A01 T03850180  RH  030%=      5-min Rain = 0
KDO1 172204Z 18016G24KT 39/18 A2991 RMK A01 T03850179  RH  030%=      5-min Rain = 0
KDO1 172205Z 18019G24KT 38/18 A2991 RMK A01 T03840177  RH  030%=      5-min Rain = 0
KDO1 172206Z 17018KT 38/18 A2991 RMK A01 T03810176  RH  030%=      5-min Rain = 0
KDO1 172207Z 18016G21KT 38/18 A2991 RMK A01 T03790176  RH  031%=      5-min Rain = 0
KDO1 172208Z 19018G23KT 38/18 A2991 RMK A01 T03790178  RH  031%=      5-min Rain = 0
KDO1 172209Z 18019KT 38/18 A2991 RMK A01 T03800176  RH  030%=      5-min Rain = 0
KDO1 172210Z 17015KT 38/18 A2991 RMK A01 T03780176  RH  031%=      5-min Rain = 0
KDO1 172211Z 18013KT 38/18 A2991 RMK A01 T03780177  RH  031%=      5-min Rain = 0
KDO1 172212Z 18009KT 38/18 A2991 RMK A01 T03780177  RH  031%=      5-min Rain = 0
KDO1 172213Z 17011KT 38/18 A2991 RMK A01 T03790179  RH  031%=      5-min Rain = 0
KDO1 172214Z 18011KT 38/18 A2991 RMK A01 T03810178  RH  031%=      5-min Rain = 0
KDO1 172215Z 19011G16KT 38/18 A2991 RMK A01 T03820179  RH  030%=      5-min Rain = 0
KDO1 172216Z 17010KT 38/18 A2991 RMK A01 T03830179  RH  030%=      5-min Rain = 0
KDO1 172217Z 17008KT 38/18 A2991 RMK A01 T03830179  RH  030%=      5-min Rain = 0
KDO1 172218Z 16008KT 38/18 A2991 RMK A01 T03840181  RH  031%=      5-min Rain = 0
KDO1 172219Z 14014KT 39/18 A299 RMK A01 T03860178  RH  030%=      5-min Rain = 0
KDO1 172220Z 14012KT 38/18 A299 RMK A01 T03830175  RH  030%=      5-min Rain = 0
KDO1 172221Z 17012KT 38/18 A299 RMK A01 T03820177  RH  030%=      5-min Rain = 0
KDO1 172222Z 16012KT 38/18 A299 RMK A01 T03830178  RH  030%=      5-min Rain = 0
KDO1 172223Z 17013KT 38/18 A299 RMK A01 T03830179  RH  030%=      5-min Rain = 0
KDO1 172224Z 17014KT 38/18 A299 RMK A01 T03840179  RH  030%=      5-min Rain = 0
KDO1 172225Z 18014KT 38/18 A299 RMK A01 T03840178  RH  030%=      5-min Rain = 0
KDO1 172226Z 19016KT 38/18 A299 RMK A01 T03840178  RH  030%=      5-min Rain = 0
KDO1 172227Z 19012KT 38/18 A299 RMK A01 T03820176  RH  030%=      5-min Rain = 0
KDO1 172228Z 17012G17KT 38/18 A299 RMK A01 T03820178  RH  030%=      5-min Rain = 0
KDO1 172229Z 18013KT 38/18 A299 RMK A01 T03820175  RH  030%=      5-min Rain = 0
KDO1 172230Z 19016KT 38/18 A299 RMK A01 T03810178  RH  031%=      5-min Rain = 0
KDO1 172231Z 19017KT 38/18 A299 RMK A01 T03810177  RH  030%=      5-min Rain = 0
KDO1 172232Z 18016KT 38/18 A299 RMK A01 T03810176  RH  030%=      5-min Rain = 0
KDO1 172233Z 18012KT 38/17 A299 RMK A01 T03810174  RH  030%=      5-min Rain = 0
KDO1 172234Z 18015KT 38/17 A299 RMK A01 T03790174  RH  030%=      5-min Rain = 0
KDO1 172235Z 18016KT 38/18 A299 RMK A01 T03790175  RH  030%=      5-min Rain = 0
KDO1 172236Z 17013G18KT 38/18 A299 RMK A01 T03790176  RH  030%=      5-min Rain = 0
KDO1 172237Z 17013KT 38/17 A299 RMK A01 T03810174  RH  030%=      5-min Rain = 0
KDO1 172238Z 18012G17KT 38/17 A299 RMK A01 T03790173  RH  030%=      5-min Rain = 0
KDO1 172239Z 19008KT 38/18 A299 RMK A01 T03790176  RH  031%=      5-min Rain = 0
KDO1 172240Z 18012G18KT 38/18 A299 RMK A01 T03800180  RH  031%=      5-min Rain = 0
KDO1 172241Z 18012G17KT 38/18 A299 RMK A01 T03820176  RH  030%=      5-min Rain = 0
KDO1 172242Z 19012G17KT 38/18 A299 RMK A01 T03810177  RH  030%=      5-min Rain = 0
KDO1 172243Z 18017G22KT 38/18 A2989 RMK A01 T03820177  RH  030%=      5-min Rain = 0
KDO1 172244Z 17011KT 38/18 A299 RMK A01 T03820175  RH  030%=      5-min Rain = 0
KDO1 172245Z 16013KT 38/17 A2989 RMK A01 T03820174  RH  030%=      5-min Rain = 0
KDO1 172246Z 18011KT 38/17 A2989 RMK A01 T03810173  RH  030%=      5-min Rain = 0
KDO1 172247Z 16010KT 38/17 A299 RMK A01 T03820174  RH  029%=      5-min Rain = 0
KDO1 172248Z 15014KT 38/17 A299 RMK A01 T03840172  RH  029%=      5-min Rain = 0
KDO1 172249Z 15011KT 38/17 A299 RMK A01 T03840170  RH  029%=      5-min Rain = 0
KDO1 172250Z 15011KT 38/17 A299 RMK A01 T03830171  RH  029%=      5-min Rain = 0
KDO1 172251Z 18013KT 38/17 A299 RMK A01 T03820172  RH  029%=      5-min Rain = 0
KDO1 172252Z 19013KT 38/17 A299 RMK A01 T03820173  RH  030%=      5-min Rain = 0
KDO1 172253Z 19011KT 38/17 A299 RMK A01 T03820170  RH  029%=      5-min Rain = 0
KDO1 172254Z 19015KT 38/17 A2989 RMK A01 T03820170  RH  029%=      5-min Rain = 0
KDO1 172255Z 18015KT 38/17 A2989 RMK A01 T03800169  RH  029%=      5-min Rain = 0
KDO1 172256Z 18012KT 38/17 A2989 RMK A01 T03800172  RH  030%=      5-min Rain = 0
KDO1 172257Z 17014KT 38/17 A2989 RMK A01 T03810169  RH  029%=      5-min Rain = 0
KDO1 172258Z 17013KT 38/17 A2989 RMK A01 T03810169  RH  029%=      5-min Rain = 0
KDO1 172259Z 17013KT 38/17 A2989 RMK A01 T03790169  RH  029%=      5-min Rain = 0
KDO1 172300Z 17011G17KT 38/17 A2989 RMK A01 T03780168  RH  029%=      5-min Rain = 0
KDO1 172301Z 16015KT 38/17 A2989 RMK A01 T03780170  RH  030%=      5-min Rain = 0
KDO1 172302Z 16014G19KT 38/17 A2989 RMK A01 T03780174  RH  030%=      5-min Rain = 0
KDO1 172303Z 16010KT 38/18 A2989 RMK A01 T03770176  RH  031%=      5-min Rain = 0
KDO1 172304Z 16012KT 38/18 A2989 RMK A01 T03780176  RH  031%=      5-min Rain = 0
KDO1 172305Z 15014KT 38/18 A2989 RMK A01 T03790175  RH  030%=      5-min Rain = 0
KDO1 172306Z 14011KT 38/17 A2989 RMK A01 T03780174  RH  030%=      5-min Rain = 0
KDO1 172307Z 15012KT 38/17 A2989 RMK A01 T03780173  RH  030%=      5-min Rain = 0
KDO1 172308Z 15011KT 38/17 A2989 RMK A01 T03780173  RH  030%=      5-min Rain = 0
KDO1 172309Z 15010KT 38/18 A2989 RMK A01 T03790175  RH  030%=      5-min Rain = 0
KDO1 172310Z 15013G19KT 38/17 A2989 RMK A01 T03800174  RH  030%=      5-min Rain = 0
KDO1 172311Z 16017KT 38/18 A2989 RMK A01 T03790175  RH  030%=      5-min Rain = 0
KDO1 172312Z 16015G20KT 38/18 A2989 RMK A01 T03780176  RH  031%=      5-min Rain = 0
KDO1 172313Z 17013KT 38/18 A2989 RMK A01 T03770176  RH  031%=      5-min Rain = 0
KDO1 172314Z 18016G21KT 38/18 A2989 RMK A01 T03760177  RH  031%=      5-min Rain = 0
KDO1 172315Z 17016KT 38/18 A2989 RMK A01 T03760179  RH  031%=      5-min Rain = 0
KDO1 172316Z 16015KT 38/18 A2989 RMK A01 T03750179  RH  032%=      5-min Rain = 0
KDO1 172317Z 17017KT 38/18 A2989 RMK A01 T03750179  RH  032%=      5-min Rain = 0
KDO1 172318Z 17017KT 37/18 A2989 RMK A01 T03730178  RH  032%=      5-min Rain = 0
KDO1 172319Z 16015KT 37/18 A2989 RMK A01 T03730178  RH  032%=      5-min Rain = 0
KDO1 172320Z 16013KT 37/18 A2989 RMK A01 T03720177  RH  032%=      5-min Rain = 0
KDO1 172321Z 17013KT 37/18 A2989 RMK A01 T03720177  RH  032%=      5-min Rain = 0
KDO1 172322Z 16012G18KT 37/18 A2989 RMK A01 T03720178  RH  032%=      5-min Rain = 0
KDO1 172323Z 16012G17KT 37/18 A2989 RMK A01 T03720179  RH  032%=      5-min Rain = 0
KDO1 172324Z 17011KT 37/18 A2989 RMK A01 T03730181  RH  033%=      5-min Rain = 0
KDO1 172325Z 17012KT 38/18 A2989 RMK A01 T03750181  RH  032%=      5-min Rain = 0
KDO1 172326Z 16010KT 38/18 A2989 RMK A01 T03760180  RH  032%=      5-min Rain = 0
KDO1 172327Z 16015KT 38/18 A2989 RMK A01 T03760179  RH  032%=      5-min Rain = 0
KDO1 172328Z 17018KT 38/18 A2989 RMK A01 T03760178  RH  031%=      5-min Rain = 0
KDO1 172329Z 18015KT 38/17 A2989 RMK A01 T03750174  RH  031%=      5-min Rain = 0
KDO1 172330Z 17017KT 37/18 A2989 RMK A01 T03730175  RH  031%=      5-min Rain = 0
KDO1 172331Z 16013KT 37/18 A2989 RMK A01 T03720175  RH  032%=      5-min Rain = 0
KDO1 172332Z 16015KT 37/18 A2989 RMK A01 T03720176  RH  032%=      5-min Rain = 0
KDO1 172333Z 17016KT 37/18 A2989 RMK A01 T03720176  RH  032%=      5-min Rain = 0
KDO1 172334Z 17014G20KT 37/18 A2989 RMK A01 T03710176  RH  032%=      5-min Rain = 0
KDO1 172335Z 16014G19KT 37/18 A2989 RMK A01 T03710177  RH  032%=      5-min Rain = 0
KDO1 172336Z 17013KT 37/18 A2989 RMK A01 T03710177  RH  032%=      5-min Rain = 0
KDO1 172337Z 16014G20KT 37/18 A2989 RMK A01 T03720178  RH  032%=      5-min Rain = 0
KDO1 172338Z 16017G22KT 37/18 A2989 RMK A01 T03720176  RH  032%=      5-min Rain = 0
KDO1 172339Z 17017KT 37/18 A2989 RMK A01 T03710176  RH  032%=      5-min Rain = 0
KDO1 172340Z 16012KT 37/18 A2989 RMK A01 T03700176  RH  032%=      5-min Rain = 0
KDO1 172341Z 16013G18KT 37/18 A2989 RMK A01 T03700176  RH  032%=      5-min Rain = 0
KDO1 172342Z 14015KT 37/18 A2989 RMK A01 T03700176  RH  032%=      5-min Rain = 0
KDO1 172343Z 14014KT 37/18 A2988 RMK A01 T03700176  RH  032%=      5-min Rain = 0
KDO1 172344Z 15014G19KT 37/18 A2988 RMK A01 T03700176  RH  032%=      5-min Rain = 0
KDO1 172345Z 16014KT 37/18 A2988 RMK A01 T03700177  RH  032%=      5-min Rain = 0
KDO1 172346Z 16010KT 37/18 A2988 RMK A01 T03700179  RH  033%=      5-min Rain = 0
KDO1 172347Z 15013KT 37/18 A2988 RMK A01 T03710179  RH  033%=      5-min Rain = 0
KDO1 172348Z 17014KT 37/18 A2988 RMK A01 T03720178  RH  032%=      5-min Rain = 0
KDO1 172349Z 17015KT 37/18 A2988 RMK A01 T03710176  RH  032%=      5-min Rain = 0
KDO1 172350Z 17015G21KT 37/18 A2988 RMK A01 T03700177  RH  032%=      5-min Rain = 0
KDO1 172351Z 16013KT 37/18 A2988 RMK A01 T03690176  RH  032%=      5-min Rain = 0
KDO1 172352Z 16015KT 37/18 A2988 RMK A01 T03700176  RH  032%=      5-min Rain = 0
KDO1 172353Z 16017KT 37/18 A2988 RMK A01 T03680176  RH  032%=      5-min Rain = 0
KDO1 172354Z 15010KT 37/18 A2988 RMK A01 T03670176  RH  033%=      5-min Rain = 0
KDO1 172355Z 15015KT 37/18 A2988 RMK A01 T03680177  RH  033%=      5-min Rain = 0
KDO1 172356Z 15011KT 37/18 A2988 RMK A01 T03690177  RH  032%=      5-min Rain = 0
KDO1 172357Z 15015KT 37/18 A2988 RMK A01 T03680176  RH  032%=      5-min Rain = 0
KDO1 172358Z 16015G21KT 37/18 A2988 RMK A01 T03680176  RH  032%=      5-min Rain = 0
KDO1 172359Z 17016G21KT 37/18 A2988 RMK A01 T03680176  RH  032%=      5-min Rain = 0
KDO1 180000Z 17017KT 37/18 A2988 RMK A01 T03670176  RH  032%=      5-min Rain = 0
KDO1 180001Z 16018KT 37/18 A2988 RMK A01 T03670176  RH  033%=      5-min Rain = 0
KDO1 180002Z 16016KT 37/18 A2988 RMK A01 T03670175  RH  032%=      5-min Rain = 0
KDO1 180003Z 17016G21KT 37/18 A2988 RMK A01 T03660176  RH  033%=      5-min Rain = 0
KDO1 180004Z 16016G21KT 37/18 A2988 RMK A01 T03660176  RH  033%=      5-min Rain = 0
KDO1 180005Z 17014KT 37/18 A2988 RMK A01 T03660176  RH  033%=      5-min Rain = 0
KDO1 180006Z 16012KT 37/18 A2988 RMK A01 T03650177  RH  033%=      5-min Rain = 0
KDO1 180007Z 16015KT 37/18 A2988 RMK A01 T03660177  RH  033%=      5-min Rain = 0
KDO1 180008Z 16018G23KT 37/18 A2988 RMK A01 T03670177  RH  033%=      5-min Rain = 0
KDO1 180009Z 16015G21KT 37/18 A2988 RMK A01 T03660177  RH  033%=      5-min Rain = 0
KDO1 180010Z 16018G23KT 37/18 A2988 RMK A01 T03650177  RH  033%=      5-min Rain = 0
KDO1 180011Z 15015KT 37/18 A2988 RMK A01 T03650177  RH  033%=      5-min Rain = 0
KDO1 180012Z 16011KT 36/18 A2988 RMK A01 T03640177  RH  033%=      5-min Rain = 0
KDO1 180013Z 15013KT 36/18 A2988 RMK A01 T03640178  RH  033%=      5-min Rain = 0
KDO1 180014Z 16014KT 36/18 A2988 RMK A01 T03640177  RH  033%=      5-min Rain = 0
KDO1 180015Z 16015KT 36/18 A2988 RMK A01 T03640177  RH  033%=      5-min Rain = 0
KDO1 180016Z 16015KT 37/18 A2988 RMK A01 T03650178  RH  033%=      5-min Rain = 0
KDO1 180017Z 15015G20KT 36/18 A2988 RMK A01 T03640179  RH  034%=      5-min Rain = 0
KDO1 180018Z 15015KT 36/18 A2988 RMK A01 T03640178  RH  034%=      5-min Rain = 0
KDO1 180019Z 16014KT 36/18 A2988 RMK A01 T03630178  RH  034%=      5-min Rain = 0
KDO1 180020Z 15014KT 36/18 A2988 RMK A01 T03630179  RH  034%=      5-min Rain = 0
KDO1 180021Z 15014KT 36/18 A2988 RMK A01 T03630179  RH  034%=      5-min Rain = 0
KDO1 180022Z 15016KT 36/18 A2988 RMK A01 T03620179  RH  034%=      5-min Rain = 0
KDO1 180023Z 15014KT 36/18 A2988 RMK A01 T03610179  RH  034%=      5-min Rain = 0
KDO1 180024Z 15013G19KT 36/18 A2988 RMK A01 T03610180  RH  034%=      5-min Rain = 0
KDO1 180025Z 15012KT 36/18 A2988 RMK A01 T03610180  RH  035%=      5-min Rain = 0
KDO1 180026Z 15012KT 36/18 A2988 RMK A01 T03610181  RH  035%=      5-min Rain = 0
KDO1 180027Z 15013KT 36/18 A2988 RMK A01 T03610181  RH  035%=      5-min Rain = 0
KDO1 180028Z 16012G18KT 36/18 A2988 RMK A01 T03610181  RH  035%=      5-min Rain = 0
KDO1 180029Z 15012KT 36/18 A2988 RMK A01 T03610182  RH  035%=      5-min Rain = 0
KDO1 180030Z 16014KT 36/18 A2988 RMK A01 T03610182  RH  035%=      5-min Rain = 0
KDO1 180031Z 16014KT 36/18 A2987 RMK A01 T03610182  RH  035%=      5-min Rain = 0
KDO1 180032Z 16012KT 36/18 A2987 RMK A01 T03600182  RH  035%=      5-min Rain = 0
KDO1 180033Z 16010KT 36/18 A2987 RMK A01 T03590182  RH  035%=      5-min Rain = 0
KDO1 180034Z 16010KT 36/18 A2987 RMK A01 T03590183  RH  035%=      5-min Rain = 0
KDO1 180035Z 16012KT 36/18 A2987 RMK A01 T03590182  RH  035%=      5-min Rain = 0
KDO1 180036Z 15012G17KT 36/18 A2987 RMK A01 T03590182  RH  035%=      5-min Rain = 0
KDO1 180037Z 16012KT 36/18 A2988 RMK A01 T03590182  RH  035%=      5-min Rain = 0
KDO1 180038Z 17013KT 36/18 A2988 RMK A01 T03590182  RH  035%=      5-min Rain = 0
KDO1 180039Z 16012KT 36/18 A2988 RMK A01 T03590181  RH  035%=      5-min Rain = 0
KDO1 180040Z 16010KT 36/18 A2988 RMK A01 T03580182  RH  035%=      5-min Rain = 0
KDO1 180041Z 16010KT 36/18 A2988 RMK A01 T03580183  RH  036%=      5-min Rain = 0
KDO1 180042Z 16012KT 36/18 A2988 RMK A01 T03590184  RH  036%=      5-min Rain = 0
KDO1 180043Z 17013KT 36/18 A2988 RMK A01 T03580182  RH  036%=      5-min Rain = 0
KDO1 180044Z 17012G17KT 36/18 A2988 RMK A01 T03570181  RH  035%=      5-min Rain = 0
KDO1 180045Z 17013KT 36/18 A2988 RMK A01 T03570180  RH  035%=      5-min Rain = 0
KDO1 180046Z 17014KT 36/18 A2988 RMK A01 T03570180  RH  035%=      5-min Rain = 0
KDO1 180047Z 17016KT 36/18 A2988 RMK A01 T03560179  RH  035%=      5-min Rain = 0
KDO1 180048Z 17012KT 36/18 A2988 RMK A01 T03560179  RH  035%=      5-min Rain = 0
KDO1 180049Z 17012G17KT 36/18 A2988 RMK A01 T03550180  RH  036%=      5-min Rain = 0
KDO1 180050Z 17012KT 36/18 A2988 RMK A01 T03550180  RH  036%=      5-min Rain = 0
KDO1 180051Z 17012KT 35/18 A2988 RMK A01 T03540179  RH  036%=      5-min Rain = 0
KDO1 180052Z 17012KT 35/18 A2988 RMK A01 T03540179  RH  036%=      5-min Rain = 0
KDO1 180053Z 17012G18KT 35/18 A2988 RMK A01 T03540180  RH  036%=      5-min Rain = 0
KDO1 180054Z 16009G15KT 35/18 A2988 RMK A01 T03530180  RH  036%=      5-min Rain = 0
KDO1 180055Z 15011KT 35/18 A2988 RMK A01 T03530181  RH  036%=      5-min Rain = 0
KDO1 180056Z 16010KT 35/18 A2988 RMK A01 T03520180  RH  036%=      5-min Rain = 0
KDO1 180057Z 15012KT 35/18 A2988 RMK A01 T03520180  RH  036%=      5-min Rain = 0
KDO1 180058Z 16014KT 35/18 A2988 RMK A01 T03520179  RH  036%=      5-min Rain = 0
KDO1 180059Z 16011KT 35/18 A2988 RMK A01 T03510178  RH  036%=      5-min Rain = 0
KDO1 180100Z 16014KT 35/18 A2988 RMK A01 T03510178  RH  036%=      5-min Rain = 0
KDO1 180101Z 16013KT 35/18 A2988 RMK A01 T03510177  RH  036%=      5-min Rain = 0
KDO1 180102Z 16014KT 35/18 A2988 RMK A01 T03510177  RH  036%=      5-min Rain = 0
KDO1 180103Z 16011KT 35/18 A2988 RMK A01 T03500177  RH  036%=      5-min Rain = 0
KDO1 180104Z 16010KT 35/18 A2988 RMK A01 T03500178  RH  036%=      5-min Rain = 0
KDO1 180105Z 16009KT 35/18 A2988 RMK A01 T03490179  RH  036%=      5-min Rain = 0
KDO1 180106Z 15010KT 35/18 A2988 RMK A01 T03490179  RH  037%=      5-min Rain = 0
KDO1 180107Z 16012G18KT 35/18 A2988 RMK A01 T03490179  RH  037%=      5-min Rain = 0
KDO1 180108Z 16011KT 35/18 A2988 RMK A01 T03480178  RH  037%=      5-min Rain = 0
KDO1 180109Z 16009KT 35/18 A2988 RMK A01 T03480178  RH  037%=      5-min Rain = 0
KDO1 180110Z 16011KT 35/18 A2988 RMK A01 T03470179  RH  037%=      5-min Rain = 0
KDO1 180111Z 15011KT 35/18 A2988 RMK A01 T03470179  RH  037%=      5-min Rain = 0
KDO1 180112Z 16011KT 35/18 A2988 RMK A01 T03460178  RH  037%=      5-min Rain = 0
KDO1 180113Z 15012KT 35/18 A2988 RMK A01 T03460178  RH  037%=      5-min Rain = 0
KDO1 180114Z 16010KT 35/18 A2988 RMK A01 T03460178  RH  037%=      5-min Rain = 0
KDO1 180115Z 16011KT 35/18 A2988 RMK A01 T03450178  RH  037%=      5-min Rain = 0
KDO1 180116Z 16009KT 35/18 A2988 RMK A01 T03450178  RH  037%=      5-min Rain = 0
KDO1 180117Z 16009KT 34/18 A2988 RMK A01 T03440178  RH  037%=      5-min Rain = 0
KDO1 180118Z 15010KT 34/18 A2988 RMK A01 T03430178  RH  037%=      5-min Rain = 0
KDO1 180119Z 16010KT 34/18 A2988 RMK A01 T03430177  RH  037%=      5-min Rain = 0
KDO1 180120Z 15010KT 34/18 A2988 RMK A01 T03430177  RH  038%=      5-min Rain = 0
KDO1 180121Z 16009KT 34/18 A2988 RMK A01 T03420177  RH  038%=      5-min Rain = 0
KDO1 180122Z 16010KT 34/18 A2988 RMK A01 T03420177  RH  038%=      5-min Rain = 0
KDO1 180123Z 16011KT 34/18 A2988 RMK A01 T03410177  RH  038%=      5-min Rain = 0
KDO1 180124Z 15011KT 34/18 A2988 RMK A01 T03410177  RH  038%=      5-min Rain = 0
KDO1 180125Z 15010KT 34/18 A2988 RMK A01 T03410177  RH  038%=      5-min Rain = 0
KDO1 180126Z 15010KT 34/18 A2988 RMK A01 T03400177  RH  038%=      5-min Rain = 0
KDO1 180127Z 15009KT 34/18 A2988 RMK A01 T03390177  RH  038%=      5-min Rain = 0
KDO1 180128Z 15011KT 34/18 A2988 RMK A01 T03390177  RH  038%=      5-min Rain = 0
KDO1 180129Z 15011KT 34/18 A2988 RMK A01 T03380177  RH  038%=      5-min Rain = 0
KDO1 180130Z 15013KT 34/18 A2988 RMK A01 T03380177  RH  039%=      5-min Rain = 0
KDO1 180131Z 15010KT 34/18 A2988 RMK A01 T03370177  RH  039%=      5-min Rain = 0
KDO1 180132Z 16011KT 34/18 A2988 RMK A01 T03370178  RH  039%=      5-min Rain = 0
KDO1 180133Z 15011KT 34/18 A2988 RMK A01 T03360178  RH  039%=      5-min Rain = 0
KDO1 180134Z 15010KT 34/18 A2988 RMK A01 T03360178  RH  039%=      5-min Rain = 0
KDO1 180135Z 15010KT 34/18 A2988 RMK A01 T03350178  RH  039%=      5-min Rain = 0
KDO1 180136Z 15009KT 34/18 A2988 RMK A01 T03350178  RH  039%=      5-min Rain = 0
KDO1 180137Z 15011KT 33/18 A2988 RMK A01 T03340178  RH  040%=      5-min Rain = 0
KDO1 180138Z 15010KT 33/18 A2988 RMK A01 T03340178  RH  040%=      5-min Rain = 0
KDO1 180139Z 16011KT 33/18 A2988 RMK A01 T03330178  RH  040%=      5-min Rain = 0
KDO1 180140Z 15010KT 33/18 A2988 RMK A01 T03320178  RH  040%=      5-min Rain = 0
KDO1 180141Z 16008KT 33/18 A2988 RMK A01 T03320178  RH  040%=      5-min Rain = 0
KDO1 180142Z 16009G14KT 33/18 A2988 RMK A01 T03320179  RH  040%=      5-min Rain = 0
KDO1 180143Z 15009KT 33/18 A2988 RMK A01 T03310178  RH  040%=      5-min Rain = 0
KDO1 180144Z 16008KT 33/18 A2988 RMK A01 T03300178  RH  040%=      5-min Rain = 0
KDO1 180145Z 15009KT 33/18 A2988 RMK A01 T03290178  RH  041%=      5-min Rain = 0
KDO1 180146Z 16010KT 33/18 A2988 RMK A01 T03290178  RH  041%=      5-min Rain = 0
KDO1 180147Z 16011KT 33/18 A2988 RMK A01 T03280178  RH  041%=      5-min Rain = 0
KDO1 180148Z 16012KT 33/18 A2988 RMK A01 T03280177  RH  041%=      5-min Rain = 0
KDO1 180149Z 16013G18KT 33/18 A2988 RMK A01 T03280176  RH  040%=      5-min Rain = 0
KDO1 180150Z 16012KT 33/18 A2989 RMK A01 T03280175  RH  040%=      5-min Rain = 0
KDO1 180151Z 16012KT 33/18 A2989 RMK A01 T03280175  RH  040%=      5-min Rain = 0
KDO1 180152Z 16012G18KT 33/17 A2989 RMK A01 T03280174  RH  040%=      5-min Rain = 0
KDO1 180153Z 16014KT 33/17 A2988 RMK A01 T03280173  RH  040%=      5-min Rain = 0
KDO1 180154Z 15010KT 33/17 A2988 RMK A01 T03280173  RH  040%=      5-min Rain = 0
KDO1 180155Z 16011KT 33/17 A2989 RMK A01 T03290174  RH  040%=      5-min Rain = 0
KDO1 180156Z 15013KT 33/17 A2989 RMK A01 T03280173  RH  040%=      5-min Rain = 0
KDO1 180157Z 15012KT 33/17 A2989 RMK A01 T03280173  RH  040%=      5-min Rain = 0
KDO1 180158Z 16013KT 33/17 A2989 RMK A01 T03270173  RH  040%=      5-min Rain = 0
KDO1 180159Z 15011KT 33/17 A2989 RMK A01 T03270172  RH  040%=      5-min Rain = 0
KDO1 180200Z 16010KT 33/17 A2989 RMK A01 T03270173  RH  040%=      5-min Rain = 0
KDO1 180201Z 15011KT 33/17 A2989 RMK A01 T03260172  RH  040%=      5-min Rain = 0
KDO1 180202Z 15011KT 33/17 A2989 RMK A01 T03260172  RH  040%=      5-min Rain = 0
KDO1 180203Z 15009KT 33/17 A2989 RMK A01 T03260172  RH  040%=      5-min Rain = 0
KDO1 180204Z 15009KT 33/17 A2989 RMK A01 T03250172  RH  040%=      5-min Rain = 0
KDO1 180205Z 16010KT 33/17 A2989 RMK A01 T03250172  RH  040%=      5-min Rain = 0
KDO1 180206Z 15011KT 32/17 A2989 RMK A01 T03240172  RH  040%=      5-min Rain = 0
KDO1 180207Z 15010KT 32/17 A2989 RMK A01 T03240171  RH  040%=      5-min Rain = 0
KDO1 180208Z 15011KT 32/17 A2989 RMK A01 T03240171  RH  040%=      5-min Rain = 0
KDO1 180209Z 15010KT 32/17 A2989 RMK A01 T03230171  RH  040%=      5-min Rain = 0
KDO1 180210Z 15011KT 32/17 A2989 RMK A01 T03230171  RH  040%=      5-min Rain = 0
KDO1 180211Z 15012KT 32/17 A2989 RMK A01 T03230171  RH  040%=      5-min Rain = 0
KDO1 180212Z 16010KT 32/17 A2989 RMK A01 T03240171  RH  040%=      5-min Rain = 0
KDO1 180213Z 15009KT 32/17 A2989 RMK A01 T03230171  RH  040%=      5-min Rain = 0
KDO1 180214Z 15011KT 32/17 A2989 RMK A01 T03220171  RH  040%=      5-min Rain = 0
KDO1 180215Z 16009KT 32/17 A2989 RMK A01 T03220171  RH  040%=      5-min Rain = 0
KDO1 180216Z 15008KT 32/17 A2989 RMK A01 T03210171  RH  041%=      5-min Rain = 0
KDO1 180217Z 16011KT 32/17 A2989 RMK A01 T03210170  RH  041%=      5-min Rain = 0
KDO1 180218Z 16009KT 32/17 A2989 RMK A01 T03210171  RH  041%=      5-min Rain = 0
KDO1 180219Z 16011KT 32/17 A2989 RMK A01 T03200170  RH  041%=      5-min Rain = 0
KDO1 180220Z 16010KT 32/17 A2989 RMK A01 T03200171  RH  041%=      5-min Rain = 0
KDO1 180221Z 16010KT 32/17 A2989 RMK A01 T03200171  RH  041%=      5-min Rain = 0
KDO1 180222Z 16009KT 32/17 A2989 RMK A01 T03200171  RH  041%=      5-min Rain = 0
KDO1 180223Z 15010KT 32/17 A2989 RMK A01 T03190171  RH  041%=      5-min Rain = 0
KDO1 180224Z 16010KT 32/17 A2989 RMK A01 T03190170  RH  041%=      5-min Rain = 0
KDO1 180225Z 15011KT 32/17 A2989 RMK A01 T03190171  RH  041%=      5-min Rain = 0
KDO1 180226Z 15011KT 32/17 A2989 RMK A01 T03180171  RH  041%=      5-min Rain = 0
KDO1 180227Z 15008KT 32/17 A2989 RMK A01 T03180171  RH  041%=      5-min Rain = 0
KDO1 180228Z 15009KT 32/17 A2989 RMK A01 T03180171  RH  041%=      5-min Rain = 0
KDO1 180229Z 15011KT 32/17 A2989 RMK A01 T03170171  RH  042%=      5-min Rain = 0
KDO1 180230Z 15010KT 32/17 A2989 RMK A01 T03170171  RH  042%=      5-min Rain = 0
KDO1 180231Z 15010KT 32/17 A2989 RMK A01 T03160171  RH  042%=      5-min Rain = 0
KDO1 180232Z 15010KT 32/17 A2989 RMK A01 T03170171  RH  042%=      5-min Rain = 0
KDO1 180233Z 15009KT 32/17 A2989 RMK A01 T03160171  RH  042%=      5-min Rain = 0
KDO1 180234Z 15011KT 32/17 A299 RMK A01 T03160171  RH  042%=      5-min Rain = 0
KDO1 180235Z 15008KT 32/17 A299 RMK A01 T03160171  RH  042%=      5-min Rain = 0
KDO1 180236Z 15010KT 32/17 A299 RMK A01 T03160171  RH  042%=      5-min Rain = 0
KDO1 180237Z 16009KT 32/17 A299 RMK A01 T03160171  RH  042%=      5-min Rain = 0
KDO1 180238Z 15009KT 32/17 A299 RMK A01 T03150171  RH  042%=      5-min Rain = 0
KDO1 180239Z 15009KT 31/17 A299 RMK A01 T03140171  RH  042%=      5-min Rain = 0
KDO1 180240Z 15009KT 31/17 A299 RMK A01 T03140171  RH  042%=      5-min Rain = 0
KDO1 180241Z 15010KT 31/17 A299 RMK A01 T03130171  RH  043%=      5-min Rain = 0
KDO1 180242Z 15008KT 31/17 A299 RMK A01 T03130171  RH  043%=      5-min Rain = 0
KDO1 180243Z 16009KT 31/17 A299 RMK A01 T03130171  RH  043%=      5-min Rain = 0
KDO1 180244Z 15010KT 31/17 A299 RMK A01 T03120171  RH  043%=      5-min Rain = 0
KDO1 180245Z 16010KT 31/17 A299 RMK A01 T03120170  RH  043%=      5-min Rain = 0
KDO1 180246Z 15009KT 31/17 A299 RMK A01 T03120170  RH  043%=      5-min Rain = 0
KDO1 180247Z 15010KT 31/17 A299 RMK A01 T03120170  RH  043%=      5-min Rain = 0
KDO1 180248Z 15010KT 31/17 A299 RMK A01 T03120171  RH  043%=      5-min Rain = 0
KDO1 180249Z 15009KT 31/17 A299 RMK A01 T03120171  RH  043%=      5-min Rain = 0
KDO1 180250Z 15009KT 31/17 A299 RMK A01 T03120171  RH  043%=      5-min Rain = 0
KDO1 180251Z 15010KT 31/17 A299 RMK A01 T03110171  RH  043%=      5-min Rain = 0
KDO1 180252Z 16009KT 31/17 A299 RMK A01 T03110170  RH  043%=      5-min Rain = 0
KDO1 180253Z 16010KT 31/17 A299 RMK A01 T03110170  RH  043%=      5-min Rain = 0
KDO1 180254Z 15010KT 31/17 A299 RMK A01 T03110170  RH  043%=      5-min Rain = 0
KDO1 180255Z 16008KT 31/17 A299 RMK A01 T03110170  RH  043%=      5-min Rain = 0
KDO1 180256Z 16011KT 31/17 A2991 RMK A01 T03110170  RH  043%=      5-min Rain = 0
KDO1 180257Z 16010KT 31/17 A2991 RMK A01 T03100170  RH  043%=      5-min Rain = 0
KDO1 180258Z 16009KT 31/17 A2991 RMK A01 T03100170  RH  043%=      5-min Rain = 0
KDO1 180259Z 15009KT 31/17 A2991 RMK A01 T03100170  RH  043%=      5-min Rain = 0
KDO1 180300Z 16011KT 31/17 A2991 RMK A01 T03100170  RH  043%=      5-min Rain = 0
KDO1 180301Z 15009KT 31/17 A2991 RMK A01 T03100170  RH  043%=      5-min Rain = 0
KDO1 180302Z 16010G15KT 31/17 A2991 RMK A01 T03100170  RH  043%=      5-min Rain = 0
KDO1 180303Z 16012KT 31/17 A2991 RMK A01 T03090170  RH  043%=      5-min Rain = 0
KDO1 180304Z 16010KT 31/17 A2991 RMK A01 T03100170  RH  043%=      5-min Rain = 0
KDO1 180305Z 16010KT 31/17 A2991 RMK A01 T03100170  RH  043%=      5-min Rain = 0
KDO1 180306Z 16011KT 31/17 A2991 RMK A01 T03090170  RH  043%=      5-min Rain = 0
KDO1 180307Z 16009KT 31/17 A2991 RMK A01 T03090170  RH  043%=      5-min Rain = 0
KDO1 180308Z 16009KT 31/17 A2991 RMK A01 T03090170  RH  043%=      5-min Rain = 0
KDO1 180309Z 16008KT 31/17 A2991 RMK A01 T03070170  RH  044%=      5-min Rain = 0
KDO1 180310Z 16009KT 31/17 A2991 RMK A01 T03070170  RH  044%=      5-min Rain = 0
KDO1 180311Z 16011KT 31/17 A2991 RMK A01 T03070170  RH  044%=      5-min Rain = 0
KDO1 180312Z 16010KT 31/17 A2991 RMK A01 T03070170  RH  044%=      5-min Rain = 0
KDO1 180313Z 16008KT 31/17 A2991 RMK A01 T03070170  RH  044%=      5-min Rain = 0
KDO1 180314Z 16009KT 31/17 A2991 RMK A01 T03060170  RH  044%=      5-min Rain = 0
KDO1 180315Z 16009KT 31/17 A2991 RMK A01 T03060170  RH  044%=      5-min Rain = 0
KDO1 180316Z 16010KT 31/17 A2991 RMK A01 T03060170  RH  044%=      5-min Rain = 0
KDO1 180317Z 16011KT 31/17 A2991 RMK A01 T03050170  RH  044%=      5-min Rain = 0
KDO1 180318Z 16009KT 31/17 A2991 RMK A01 T03050170  RH  044%=      5-min Rain = 0
KDO1 180319Z 16010KT 31/17 A2991 RMK A01 T03060170  RH  044%=      5-min Rain = 0
KDO1 180320Z 16009KT 31/17 A2991 RMK A01 T03060170  RH  044%=      5-min Rain = 0
KDO1 180321Z 16010KT 31/17 A2991 RMK A01 T03050170  RH  044%=      5-min Rain = 0
KDO1 180322Z 16010KT 31/17 A2991 RMK A01 T03050170  RH  044%=      5-min Rain = 0
KDO1 180323Z 16010KT 30/17 A2991 RMK A01 T03040170  RH  045%=      5-min Rain = 0
KDO1 180324Z 16009KT 31/17 A2991 RMK A01 T03050170  RH  045%=      5-min Rain = 0
KDO1 180325Z 16007KT 30/17 A2991 RMK A01 T03040170  RH  045%=      5-min Rain = 0
KDO1 180326Z 16008KT 30/17 A2991 RMK A01 T03040171  RH  045%=      5-min Rain = 0
KDO1 180327Z 16010KT 30/17 A2991 RMK A01 T03030171  RH  045%=      5-min Rain = 0
KDO1 180328Z 16008KT 30/17 A2991 RMK A01 T03030171  RH  045%=      5-min Rain = 0
KDO1 180329Z 16008G14KT 30/17 A2991 RMK A01 T03030171  RH  045%=      5-min Rain = 0
KDO1 180330Z 16010KT 30/17 A2991 RMK A01 T03020171  RH  045%=      5-min Rain = 0
KDO1 180331Z 16010KT 30/17 A2991 RMK A01 T03020171  RH  045%=      5-min Rain = 0
KDO1 180332Z 16010KT 30/17 A2991 RMK A01 T03020171  RH  045%=      5-min Rain = 0
KDO1 180333Z 16010KT 30/17 A2991 RMK A01 T03020171  RH  045%=      5-min Rain = 0
KDO1 180334Z 16012KT 30/17 A2991 RMK A01 T03020171  RH  046%=      5-min Rain = 0
KDO1 180335Z 16009KT 30/17 A2991 RMK A01 T03020171  RH  046%=      5-min Rain = 0
KDO1 180336Z 16008KT 30/17 A2991 RMK A01 T03020172  RH  046%=      5-min Rain = 0
KDO1 180337Z 16009KT 30/17 A2991 RMK A01 T03010172  RH  046%=      5-min Rain = 0
KDO1 180338Z 16009KT 30/17 A2992 RMK A01 T03000172  RH  046%=      5-min Rain = 0
KDO1 180339Z 16009KT 30/17 A2992 RMK A01 T03000172  RH  046%=      5-min Rain = 0
KDO1 180340Z 16010KT 30/17 A2992 RMK A01 T02990172  RH  046%=      5-min Rain = 0
KDO1 180341Z 16008KT 30/17 A2992 RMK A01 T02990172  RH  046%=      5-min Rain = 0
KDO1 180342Z 16009KT 30/17 A2992 RMK A01 T02990172  RH  046%=      5-min Rain = 0
KDO1 180343Z 16010KT 30/17 A2992 RMK A01 T03000173  RH  046%=      5-min Rain = 0
KDO1 180344Z 16010KT 30/17 A2992 RMK A01 T02990172  RH  047%=      5-min Rain = 0
KDO1 180345Z 16009KT 30/17 A2992 RMK A01 T02980173  RH  047%=      5-min Rain = 0
KDO1 180346Z 16008KT 30/17 A2992 RMK A01 T02980173  RH  047%=      5-min Rain = 0
KDO1 180347Z 16008KT 30/17 A2992 RMK A01 T02980173  RH  047%=      5-min Rain = 0
KDO1 180348Z 16009KT 30/17 A2992 RMK A01 T02970173  RH  047%=      5-min Rain = 0
KDO1 180349Z 16008KT 30/17 A2992 RMK A01 T02970173  RH  047%=      5-min Rain = 0
KDO1 180350Z 15008KT 30/17 A2992 RMK A01 T02960173  RH  048%=      5-min Rain = 0
KDO1 180351Z 15008KT 30/17 A2992 RMK A01 T02960173  RH  048%=      5-min Rain = 0
KDO1 180352Z 15008KT 30/17 A2992 RMK A01 T02950173  RH  048%=      5-min Rain = 0
KDO1 180353Z 15007KT 30/17 A2992 RMK A01 T02950173  RH  048%=      5-min Rain = 0
KDO1 180354Z 15007KT 29/17 A2992 RMK A01 T02940173  RH  048%=      5-min Rain = 0
KDO1 180355Z 15007KT 29/17 A2992 RMK A01 T02940173  RH  048%=      5-min Rain = 0
KDO1 180356Z 15008KT 29/17 A2992 RMK A01 T02940173  RH  048%=      5-min Rain = 0
KDO1 180357Z 15008KT 29/17 A2992 RMK A01 T02930174  RH  048%=      5-min Rain = 0
KDO1 180358Z 15009KT 29/17 A2992 RMK A01 T02930174  RH  049%=      5-min Rain = 0
KDO1 180359Z 15008KT 29/17 A2992 RMK A01 T02930174  RH  049%=      5-min Rain = 0
KDO1 180400Z 15009KT 29/17 A2992 RMK A01 T02930174  RH  049%=      5-min Rain = 0
KDO1 180401Z 15008KT 29/17 A2992 RMK A01 T02930174  RH  049%=      5-min Rain = 0
KDO1 180402Z 15007KT 29/17 A2992 RMK A01 T02920174  RH  049%=      5-min Rain = 0
KDO1 180403Z 15009KT 29/17 A2992 RMK A01 T02920174  RH  049%=      5-min Rain = 0
KDO1 180404Z 15007KT 29/17 A2992 RMK A01 T02910174  RH  049%=      5-min Rain = 0
KDO1 180405Z 15007KT 29/17 A2992 RMK A01 T02910174  RH  049%=      5-min Rain = 0
KDO1 180406Z 15007KT 29/17 A2992 RMK A01 T02910174  RH  049%=      5-min Rain = 0
KDO1 180407Z 15008KT 29/17 A2992 RMK A01 T02900174  RH  050%=      5-min Rain = 0
KDO1 180408Z 15007KT 29/17 A2992 RMK A01 T02890174  RH  050%=      5-min Rain = 0
KDO1 180409Z 15007KT 29/17 A2992 RMK A01 T02890174  RH  050%=      5-min Rain = 0
KDO1 180410Z 15008KT 29/17 A2992 RMK A01 T02890174  RH  050%=      5-min Rain = 0
KDO1 180411Z 15008KT 29/17 A2992 RMK A01 T02880174  RH  050%=      5-min Rain = 0
KDO1 180412Z 15008KT 29/18 A2992 RMK A01 T02890175  RH  050%=      5-min Rain = 0
KDO1 180413Z 15009KT 29/18 A2992 RMK A01 T02890175  RH  050%=      5-min Rain = 0
KDO1 180414Z 15008KT 29/18 A2992 RMK A01 T02880175  RH  050%=      5-min Rain = 0
KDO1 180415Z 15009KT 29/18 A2992 RMK A01 T02880175  RH  050%=      5-min Rain = 0
KDO1 180416Z 15009KT 29/18 A2992 RMK A01 T02880175  RH  051%=      5-min Rain = 0
KDO1 180417Z 15008KT 29/18 A2992 RMK A01 T02880175  RH  051%=      5-min Rain = 0
KDO1 180418Z 15009KT 29/18 A2992 RMK A01 T02870175  RH  051%=      5-min Rain = 0
KDO1 180419Z 15008KT 29/18 A2992 RMK A01 T02870175  RH  051%=      5-min Rain = 0
KDO1 180420Z 15008KT 29/18 A2992 RMK A01 T02870176  RH  051%=      5-min Rain = 0
KDO1 180421Z 15008KT 29/18 A2992 RMK A01 T02860175  RH  051%=      5-min Rain = 0
KDO1 180422Z 15009KT 29/18 A2992 RMK A01 T02860176  RH  051%=      5-min Rain = 0
KDO1 180423Z 15008KT 29/18 A2992 RMK A01 T02860176  RH  051%=      5-min Rain = 0
KDO1 180424Z 15008KT 29/18 A2993 RMK A01 T02860176  RH  052%=      5-min Rain = 0
KDO1 180425Z 15007KT 29/18 A2993 RMK A01 T02850176  RH  052%=      5-min Rain = 0
KDO1 180426Z 15007KT 29/18 A2993 RMK A01 T02850177  RH  052%=      5-min Rain = 0
KDO1 180427Z 15008KT 28/18 A2993 RMK A01 T02840177  RH  052%=      5-min Rain = 0
KDO1 180428Z 15007KT 28/18 A2993 RMK A01 T02840177  RH  052%=      5-min Rain = 0
KDO1 180429Z 15009KT 28/18 A2993 RMK A01 T02840177  RH  052%=      5-min Rain = 0
KDO1 180430Z 15007KT 28/18 A2993 RMK A01 T02840177  RH  052%=      5-min Rain = 0
KDO1 180431Z 15008KT 28/18 A2993 RMK A01 T02840178  RH  053%=      5-min Rain = 0
KDO1 180432Z 15008KT 28/18 A2993 RMK A01 T02840178  RH  053%=      5-min Rain = 0
KDO1 180433Z 15008KT 28/18 A2993 RMK A01 T02840178  RH  053%=      5-min Rain = 0
KDO1 180434Z 15007KT 28/18 A2993 RMK A01 T02830178  RH  053%=      5-min Rain = 0
KDO1 180435Z 15007KT 28/18 A2993 RMK A01 T02830178  RH  053%=      5-min Rain = 0
KDO1 180436Z 15008KT 28/18 A2993 RMK A01 T02830178  RH  053%=      5-min Rain = 0
KDO1 180437Z 15007KT 28/18 A2993 RMK A01 T02830179  RH  053%=      5-min Rain = 0
KDO1 180438Z 16009KT 28/18 A2993 RMK A01 T02830179  RH  053%=      5-min Rain = 0
KDO1 180439Z 15008KT 28/18 A2993 RMK A01 T02820179  RH  053%=      5-min Rain = 0
KDO1 180440Z 15008KT 28/18 A2993 RMK A01 T02830179  RH  053%=      5-min Rain = 0
KDO1 180441Z 15007KT 28/18 A2994 RMK A01 T02830179  RH  053%=      5-min Rain = 0
KDO1 180442Z 16009KT 28/18 A2994 RMK A01 T02820179  RH  054%=      5-min Rain = 0
KDO1 180443Z 15007KT 28/18 A2994 RMK A01 T02820179  RH  054%=      5-min Rain = 0
KDO1 180444Z 16007KT 28/18 A2994 RMK A01 T02820180  RH  054%=      5-min Rain = 0
KDO1 180445Z 15006KT 28/18 A2994 RMK A01 T02820180  RH  054%=      5-min Rain = 0
KDO1 180446Z 16007KT 28/18 A2994 RMK A01 T02810180  RH  054%=      5-min Rain = 0
KDO1 180447Z 16007KT 28/18 A2994 RMK A01 T02810180  RH  054%=      5-min Rain = 0
KDO1 180448Z 15007KT 28/18 A2994 RMK A01 T02800180  RH  054%=      5-min Rain = 0
KDO1 180449Z 15008KT 28/18 A2994 RMK A01 T02800180  RH  054%=      5-min Rain = 0
KDO1 180450Z 16007KT 28/18 A2994 RMK A01 T02800180  RH  055%=      5-min Rain = 0
KDO1 180451Z 16007KT 28/18 A2994 RMK A01 T02800180  RH  055%=      5-min Rain = 0
KDO1 180452Z 15007KT 28/18 A2994 RMK A01 T02800180  RH  055%=      5-min Rain = 0
KDO1 180453Z 16009KT 28/18 A2994 RMK A01 T02790181  RH  055%=      5-min Rain = 0
KDO1 180454Z 15008KT 28/18 A2994 RMK A01 T02790181  RH  055%=      5-min Rain = 0
KDO1 180455Z 15007KT 28/18 A2994 RMK A01 T02790181  RH  055%=      5-min Rain = 0
KDO1 180456Z 15008KT 28/18 A2994 RMK A01 T02800181  RH  055%=      5-min Rain = 0
KDO1 180457Z 15007KT 28/18 A2994 RMK A01 T02790181  RH  055%=      5-min Rain = 0
KDO1 180458Z 15008KT 28/18 A2994 RMK A01 T02790181  RH  055%=      5-min Rain = 0
KDO1 180459Z 15008KT 28/18 A2994 RMK A01 T02780181  RH  055%=      5-min Rain = 0

Page generated in 0.1213 seconds.